M I D A S
Marine Information and Data Acquisition System
Tripno 1829 of the Zeeleeuw from 2009-12-18 07:37:33 to 2009-12-18 15:35:12
Back to CruiseResearch ActivitiesStationsMapUnderway DataData graphs

EquipmentUnitsComment
TimeDGPSUTC
LatitudeDGPSDM.mWGS84
LongitudeDGPSDM.mWGS84
TemperatureSBE03/SBE38deg celciusITS90
ConductivitySBE21S/mITS90
SalinitySBE21 Practical Salinity Units
ChlorophylAChelsea fluorimeterg/lCalibrated in Aceton
Missing or incorrect values are displayed as -999
Sea surface data collected by the RV Zeeleeuw from 2009-12-18 07:40:09 to 2009-12-18 15:38:23
                                                                                    Next 1000 lines
Time Latitude Longitude Temperature Conductivity Salinity ChlorophylA
2009-12-18 07:40:19 51°13.662 2°55.955 13.3672 1.290276 11.928815 0.879931
2009-12-18 07:40:24 51°13.663 2°55.951 13.4451 1.289864 11.92369 0.879931
2009-12-18 07:40:29 51°13.665 2°55.947 13.511 1.290173 11.927451 0.879931
2009-12-18 07:40:35 51°13.666 2°55.941 13.4847 1.29007 11.926752 0.879931
2009-12-18 07:40:40 51°13.668 2°55.936 13.5163 1.29007 11.927085 0.879931
2009-12-18 07:40:46 51°13.669 2°55.928 13.5247 1.29007 11.927085 0.879931
2009-12-18 07:40:51 51°13.671 2°55.922 13.53 1.29007 11.927418 0.879931
2009-12-18 07:40:57 51°13.673 2°55.913 13.5236 1.29007 11.927751 0.914755
2009-12-18 07:41:03 51°13.674 2°55.905 13.5212 1.29007 11.928084 0.879931
2009-12-18 07:41:08 51°13.676 2°55.897 13.4991 1.289967 11.927385 0.879931
2009-12-18 07:41:13 51°13.677 2°55.889 13.5242 1.289761 11.924988 0.879931
2009-12-18 07:41:18 51°13.679 2°55.881 13.5413 1.289967 11.927385 0.879931
2009-12-18 07:41:23 51°13.681 2°55.873 13.5498 1.289967 11.927385 0.879931
2009-12-18 07:41:28 51°13.683 2°55.865 13.5609 1.289967 11.927718 0.879931
2009-12-18 07:41:33 51°13.685 2°55.856 13.5646 1.289967 11.928051 0.879931
2009-12-18 07:41:38 51°13.687 2°55.848 13.5632 1.289967 11.928384 0.879931
2009-12-18 07:41:43 51°13.689 2°55.84 13.5609 1.289967 11.928717 0.879931
2009-12-18 07:41:48 51°13.691 2°55.832 13.5461 1.289761 11.926653 0.879931
2009-12-18 07:41:53 51°13.694 2°55.824 13.5554 1.289761 11.926653 0.879931
2009-12-18 07:41:58 51°13.696 2°55.816 13.5581 1.289761 11.926653 0.879931
2009-12-18 07:42:03 51°13.699 2°55.808 13.5372 1.289761 11.926987 0.879931
2009-12-18 07:42:08 51°13.702 2°55.8 13.5056 1.289761 11.92732 0.879931
2009-12-18 07:42:13 51°13.705 2°55.792 13.4937 1.289761 11.92732 0.879931
2009-12-18 07:42:18 51°13.708 2°55.784 13.5322 1.289761 11.92732 0.879931
2009-12-18 07:42:23 51°13.711 2°55.776 13.5391 1.289657 11.926621 0.879931
2009-12-18 07:42:28 51°13.715 2°55.769 13.527 1.289554 11.925589 0.879931
2009-12-18 07:42:33 51°13.718 2°55.761 13.5384 1.289554 11.925922 0.879931
2009-12-18 07:42:38 51°13.722 2°55.754 13.5446 1.289554 11.926255 0.879931
2009-12-18 07:42:43 51°13.725 2°55.746 13.545 1.289451 11.925223 0.879931
2009-12-18 07:42:47 51°13.728 2°55.741 13.541 1.289451 11.925223 0.879931
2009-12-18 07:42:53 51°13.733 2°55.732 13.5583 1.289554 11.926588 0.879931
2009-12-18 07:42:58 51°13.737 2°55.725 13.5569 1.289451 11.925889 0.879931
2009-12-18 07:43:03 51°13.741 2°55.719 13.5483 1.289451 11.925889 0.879931
2009-12-18 07:43:08 51°13.746 2°55.712 13.5558 1.289348 11.92519 0.879931
2009-12-18 07:43:13 51°13.75 2°55.706 13.5644 1.289348 11.92519 0.879931
2009-12-18 07:43:18 51°13.755 2°55.7 13.5469 1.289348 11.925523 0.879931
2009-12-18 07:43:23 51°13.76 2°55.694 13.532 1.289348 11.925523 0.879931
2009-12-18 07:43:28 51°13.764 2°55.688 13.5391 1.289245 11.924824 0.879931
2009-12-18 07:43:33 51°13.77 2°55.682 13.5211 1.289348 11.925856 0.879931
2009-12-18 07:43:38 51°13.775 2°55.677 13.5361 1.289245 11.925157 0.879931
2009-12-18 07:43:43 51°13.781 2°55.672 13.5486 1.289142 11.924125 0.879931
2009-12-18 07:43:48 51°13.787 2°55.667 13.5495 1.289142 11.924125 0.879931
2009-12-18 07:43:53 51°13.793 2°55.663 13.5661 1.289142 11.924458 0.879931
2009-12-18 07:43:58 51°13.799 2°55.659 13.539 1.289142 11.924791 0.879931
2009-12-18 07:44:03 51°13.805 2°55.655 13.5863 1.289142 11.925124 0.879931
2009-12-18 07:44:08 51°13.811 2°55.652 13.5157 1.289142 11.925124 0.879931
2009-12-18 07:44:13 51°13.817 2°55.649 13.5491 1.289142 11.925458 0.879931
2009-12-18 07:44:26 51°13.834 2°55.643 13.5423 1.289039 11.924758 0.879931
2009-12-18 07:44:31 51°13.84 2°55.64 13.5398 1.289039 11.925092 0.879931
2009-12-18 07:44:31 51°13.84 2°55.64 13.5398 1.289039 11.925092 0.879931
2009-12-18 07:44:44 51°13.856 2°55.634 13.5603 1.288936 11.924726 0.879931
2009-12-18 07:44:49 51°13.862 2°55.632 13.5399 1.288936 11.924726 0.879931
2009-12-18 07:44:54 51°13.868 2°55.631 13.5641 1.288936 11.924726 0.879931
2009-12-18 07:44:59 51°13.874 2°55.629 13.5666 1.288936 11.925059 0.879931
2009-12-18 07:45:04 51°13.879 2°55.628 13.5394 1.288936 11.925392 0.879931
2009-12-18 07:45:09 51°13.884 2°55.627 13.537 1.288936 11.925725 0.879931
2009-12-18 07:45:14 51°13.889 2°55.626 13.5226 1.288936 11.925725 0.879931
2009-12-18 07:45:19 51°13.894 2°55.625 13.5823 1.288936 11.926059 0.879931
2009-12-18 07:45:24 51°13.899 2°55.624 13.558 1.288729 11.923993 0.879931
2009-12-18 07:45:29 51°13.903 2°55.624 13.5775 1.288729 11.923993 0.879931
2009-12-18 07:45:34 51°13.907 2°55.623 13.5861 1.288832 11.925359 0.879931
2009-12-18 07:45:39 51°13.911 2°55.623 13.5807 1.288832 11.925359 0.879931
2009-12-18 07:45:44 51°13.915 2°55.623 13.5858 1.288832 11.925359 0.879931
2009-12-18 07:45:49 51°13.919 2°55.624 13.5817 1.288832 11.925693 0.879931
2009-12-18 07:45:54 51°13.923 2°55.624 13.5866 1.288832 11.925693 0.879931
2009-12-18 07:45:59 51°13.926 2°55.625 13.5934 1.288729 11.92466 0.879931
2009-12-18 07:46:03 51°13.929 2°55.625 13.5791 1.288729 11.92466 0.879931
2009-12-18 07:46:08 51°13.932 2°55.626 13.5958 1.288729 11.924993 0.879931
2009-12-18 07:46:13 51°13.934 2°55.626 13.5918 1.288626 11.923961 0.879931
2009-12-18 07:46:18 51°13.937 2°55.627 13.6041 1.288626 11.924294 0.879931
2009-12-18 07:46:23 51°13.939 2°55.628 13.6105 1.288626 11.924294 0.879931
2009-12-18 07:46:27 51°13.941 2°55.628 13.6045 1.288626 11.924627 0.879931
2009-12-18 07:46:33 51°13.943 2°55.629 13.6013 1.288626 11.924627 0.879931
2009-12-18 07:46:38 51°13.944 2°55.629 13.5933 1.288626 11.924961 0.879931
2009-12-18 07:46:42 51°13.944 2°55.629 13.5903 1.288523 11.923928 0.914755
2009-12-18 07:46:47 51°13.945 2°55.628 13.5861 1.288523 11.923928 0.879931
2009-12-18 07:46:52 51°13.946 2°55.628 13.5808 1.28842 11.922895 0.879931
2009-12-18 07:46:57 51°13.946 2°55.627 13.5578 1.28842 11.922895 0.879931
2009-12-18 07:47:02 51°13.946 2°55.626 13.5473 1.28842 11.923228 0.879931
2009-12-18 07:47:07 51°13.946 2°55.625 13.5788 1.28842 11.923228 0.879931
2009-12-18 07:47:11 51°13.947 2°55.623 13.6038 1.288317 11.922196 0.879931
2009-12-18 07:47:16 51°13.946 2°55.621 13.5162 1.288317 11.922196 0.879931
2009-12-18 07:47:21 51°13.946 2°55.619 13.5115 1.288214 11.921163 0.879931
2009-12-18 07:47:26 51°13.946 2°55.616 13.4693 1.288214 11.921163 0.879931
2009-12-18 07:47:31 51°13.946 2°55.613 13.4705 1.288214 11.92083 0.879931
2009-12-18 07:47:36 51°13.947 2°55.609 13.4681 1.288214 11.921163 0.879931
2009-12-18 07:47:42 51°13.947 2°55.605 13.4904 1.287904 11.918065 0.879931
2009-12-18 07:47:47 51°13.948 2°55.601 13.4746 1.288007 11.919098 0.879931
2009-12-18 07:47:52 51°13.949 2°55.597 13.4341 1.288007 11.919098 0.879931
2009-12-18 07:47:57 51°13.95 2°55.593 13.4077 1.287595 11.914967 0.879931
2009-12-18 07:48:02 51°13.951 2°55.589 13.4065 1.287698 11.915667 0.879931
2009-12-18 07:48:07 51°13.953 2°55.584 13.5057 1.287698 11.916 0.879931
2009-12-18 07:48:12 51°13.956 2°55.579 13.5157 1.287904 11.918731 0.879931
2009-12-18 07:48:17 51°13.959 2°55.574 13.5121 1.287904 11.919398 0.879931
2009-12-18 07:48:23 51°13.963 2°55.568 13.5315 1.287904 11.919398 0.879931
2009-12-18 07:48:29 51°13.968 2°55.562 13.5407 1.288007 11.920764 0.879931
2009-12-18 07:48:34 51°13.972 2°55.556 13.5643 1.288007 11.92143 0.879931
2009-12-18 07:48:38 51°13.976 2°55.552 13.5706 1.288007 11.922097 0.879931
2009-12-18 07:48:43 51°13.982 2°55.546 13.5888 1.287904 11.921397 0.879931
2009-12-18 07:48:48 51°13.988 2°55.539 13.5695 1.287904 11.921731 0.879931
2009-12-18 07:48:53 51°13.995 2°55.533 13.5936 1.287801 11.921031 0.879931
2009-12-18 07:48:58 51°14.003 2°55.526 13.5385 1.287801 11.921031 0.879931
2009-12-18 07:49:03 51°14.011 2°55.519 13.5459 1.287801 11.921031 0.879931
2009-12-18 07:49:08 51°14.02 2°55.511 13.5035 1.287698 11.919998 0.879931
2009-12-18 07:49:13 51°14.029 2°55.503 13.536 1.287595 11.918965 0.879931
2009-12-18 07:49:18 51°14.039 2°55.494 13.5031 1.287492 11.917932 0.879931
2009-12-18 07:49:23 51°14.049 2°55.486 13.4898 1.287492 11.917932 0.879931
2009-12-18 07:49:28 51°14.059 2°55.477 13.4412 1.287285 11.916199 0.879931
2009-12-18 07:49:33 51°14.07 2°55.468 13.4622 1.287285 11.916199 0.879931
2009-12-18 07:49:39 51°14.083 2°55.456 13.4377 1.286048 11.903804 0.879931
2009-12-18 07:49:43 51°14.091 2°55.448 13.4494 1.28677 11.911368 0.879931
2009-12-18 07:49:49 51°14.105 2°55.437 13.4992 1.286254 11.906203 0.879931
2009-12-18 07:49:54 51°14.116 2°55.428 13.4515 1.286254 11.906203 0.879931
2009-12-18 07:49:58 51°14.126 2°55.42 13.538 1.286976 11.913767 0.879931
2009-12-18 07:50:03 51°14.137 2°55.41 13.4969 1.286357 11.907902 0.879931
2009-12-18 07:50:09 51°14.151 2°55.398 13.4587 1.28677 11.912034 0.879931
2009-12-18 07:50:14 51°14.162 2°55.388 13.4853 1.286151 11.905836 0.879931
2009-12-18 07:50:18 51°14.172 2°55.38 13.5682 1.286151 11.906169 0.879931
2009-12-18 07:50:23 51°14.183 2°55.369 13.5444 1.286151 11.906169 0.879931
2009-12-18 07:50:29 51°14.197 2°55.356 13.4452 1.286564 11.911967 0.879931
2009-12-18 07:50:33 51°14.205 2°55.347 13.5063 1.287079 11.918133 0.879931
2009-12-18 07:50:38 51°14.216 2°55.335 13.5197 1.287286 11.9212 0.879931
2009-12-18 07:50:43 51°14.227 2°55.322 13.5165 1.282232 11.870572 0.879931
2009-12-18 07:50:48 51°14.237 2°55.308 13.4768 1.28646 11.912933 0.879931
2009-12-18 07:50:54 51°14.248 2°55.292 13.3736 1.274909 11.799229 0.879931
2009-12-18 07:50:58 51°14.255 2°55.279 13.437 1.274909 11.799229 0.879931
2009-12-18 07:51:03 51°14.264 2°55.263 13.4309 1.281819 11.872087 0.879931
2009-12-18 07:51:08 51°14.272 2°55.247 13.3992 1.243352 11.487184 0.879931
2009-12-18 07:51:13 51°14.281 2°55.23 13.3093 1.259646 11.645845 0.879931
2009-12-18 07:51:18 51°14.289 2°55.213 13.2915 1.247477 11.521954 0.879931
2009-12-18 07:51:23 51°14.298 2°55.196 13.2712 1.247477 11.521954 0.879931
2009-12-18 07:51:27 51°14.304 2°55.181 13.2493 1.208806 11.131909 0.879931
2009-12-18 07:51:32 51°14.313 2°55.163 13.2143 1.163229 10.675775 0.879931
2009-12-18 07:51:38 51°14.322 2°55.14 13.3018 1.240877 11.448359 0.879931
2009-12-18 07:51:42 51°14.329 2°55.125 13.3325 1.253149 11.572471 0.879931
2009-12-18 07:51:47 51°14.337 2°55.106 13.3846 1.231492 11.354133 0.879931
2009-12-18 07:51:52 51°14.345 2°55.086 13.2946 1.231492 11.354133 0.879931
2009-12-18 07:51:57 51°14.353 2°55.065 13.2792 1.254799 11.584742 0.879931
2009-12-18 07:52:02 51°14.361 2°55.045 13.2911 1.275631 11.791281 0.879931
2009-12-18 07:52:07 51°14.369 2°55.025 13.214 1.0925 9.977996 0.879931
2009-12-18 07:52:12 51°14.377 2°55.005 13.2407 1.157764 10.625468 0.879931
2009-12-18 07:52:17 51°14.387 2°54.987 13.2848 1.186017 10.904355 0.879931
2009-12-18 07:52:22 51°14.397 2°54.969 13.1531 1.194988 10.994439 0.879931
2009-12-18 07:52:27 51°14.409 2°54.954 13.194 1.194988 10.994439 0.879931
2009-12-18 07:52:31 51°14.418 2°54.942 13.1767 1.179108 10.836948 0.879931
2009-12-18 07:52:36 51°14.43 2°54.93 13.186 1.159723 10.644891 0.879931
2009-12-18 07:52:41 51°14.443 2°54.918 13.1721 1.251086 11.55478 0.879931
2009-12-18 07:52:46 51°14.457 2°54.909 13.2881 1.159929 10.649616 0.879931
2009-12-18 07:52:51 51°14.47 2°54.9 13.1952 1.265834 11.743561 0.845107
2009-12-18 07:52:56 51°14.484 2°54.892 13.1756 1.265834 11.743561 0.845107
2009-12-18 07:53:01 51°14.498 2°54.885 13.149 1.241083 11.494771 0.879931
2009-12-18 07:53:06 51°14.511 2°54.878 13.2019 1.193957 11.048785 0.879931
2009-12-18 07:53:11 51°14.524 2°54.871 13.2626 1.263772 11.741656 0.879931
2009-12-18 07:53:16 51°14.538 2°54.865 13.2078 1.276973 11.87272 0.879931
2009-12-18 07:53:20 51°14.549 2°54.859 13.2563 1.276973 11.87272 0.879931
2009-12-18 07:53:26 51°14.566 2°54.852 13.1262 1.253253 11.618338 0.879931
2009-12-18 07:53:30 51°14.577 2°54.847 13.1472 1.251602 11.59919 0.879931
2009-12-18 07:53:35 51°14.59 2°54.843 13.1564 1.268825 11.773248 0.879931
2009-12-18 07:53:40 51°14.604 2°54.837 13.156 1.284089 11.93023 0.879931
2009-12-18 07:53:45 51°14.618 2°54.833 13.1926 1.263669 11.736989 0.879931
2009-12-18 07:53:50 51°14.632 2°54.828 13.1925 1.263669 11.736989 0.879931
2009-12-18 07:53:55 51°14.646 2°54.824 13.2061 1.28182 11.945003 0.879931
2009-12-18 07:54:00 51°14.66 2°54.819 13.1936 1.285842 11.977124 0.879931
2009-12-18 07:54:05 51°14.674 2°54.816 13.1583 1.281717 11.921454 0.879931
2009-12-18 07:54:10 51°14.688 2°54.812 13.2284 1.281923 11.918167 0.879931
2009-12-18 07:54:15 51°14.702 2°54.809 13.1631 1.282851 11.930858 0.879931
2009-12-18 07:54:19 51°14.713 2°54.806 13.1615 1.250056 11.607476 0.879931
2009-12-18 07:54:25 51°14.73 2°54.802 11.6993 1.250056 11.607476 0.879931
2009-12-18 07:54:30 51°14.744 2°54.798 10.4948 1.298735 12.139597 1.088875
2009-12-18 07:54:35 51°14.758 2°54.794 8.9613 1.30874 12.278986 1.193347
2009-12-18 07:54:40 51°14.772 2°54.79 8.0847 2.074303 20.215589 1.228171
2009-12-18 07:54:45 51°14.786 2°54.787 7.5338 2.715241 24.908925 1.576412
2009-12-18 07:54:50 51°14.801 2°54.784 7.2523 2.715241 24.908925 1.576412
2009-12-18 07:54:55 51°14.815 2°54.78 6.9546 2.799214 24.151875 1.054051
2009-12-18 07:54:59 51°14.826 2°54.777 6.8531 2.924502 24.919062 0.601338
2009-12-18 07:55:05 51°14.844 2°54.774 6.6842 3.240421 28.182048 0.810283
2009-12-18 07:55:10 51°14.858 2°54.771 6.6265 3.267042 29.116209 1.019227
2009-12-18 07:55:15 51°14.872 2°54.77 6.563 3.24541 29.642152 1.123699
2009-12-18 07:55:19 51°14.883 2°54.768 6.5883 3.24541 29.642152 1.123699
2009-12-18 07:55:25 51°14.9 2°54.766 6.4911 3.228228 30.037672 1.158523
2009-12-18 07:55:30 51°14.914 2°54.764 6.307 3.200797 30.314127 1.193347
2009-12-18 07:55:35 51°14.928 2°54.761 6.3219 3.188688 30.562296 1.193347
2009-12-18 07:55:40 51°14.942 2°54.759 6.3402 3.162601 30.559679 1.193347
2009-12-18 07:55:45 51°14.956 2°54.756 6.3354 3.146246 30.5831 1.193347
2009-12-18 07:55:50 51°14.97 2°54.753 6.3401 3.138793 30.625221 1.193347
2009-12-18 07:55:55 51°14.984 2°54.751 6.351 3.138793 30.625221 1.193347
2009-12-18 07:56:00 51°14.998 2°54.747 6.3444 3.132376 30.643123 1.228171
2009-12-18 07:56:05 51°15.012 2°54.746 6.2807 3.12689 30.70141 1.228171
2009-12-18 07:56:10 51°15.026 2°54.743 6.3189 3.119748 30.711014 1.193347
2009-12-18 07:56:15 51°15.04 2°54.741 6.276 3.117782 30.74262 1.228171
2009-12-18 07:56:20 51°15.054 2°54.738 6.2936 3.115505 30.748987 1.193347
2009-12-18 07:56:25 51°15.068 2°54.735 6.2734 3.115505 30.748987 1.193347
2009-12-18 07:56:30 51°15.082 2°54.733 6.271 3.117783 30.795834 1.193347
2009-12-18 07:56:35 51°15.096 2°54.73 6.2613 3.118197 30.812212 1.228171
2009-12-18 07:56:40 51°15.11 2°54.726 6.2934 3.118611 30.831994 1.228171
2009-12-18 07:56:45 51°15.124 2°54.722 6.2678 3.121096 30.8787 1.228171
2009-12-18 07:56:50 51°15.138 2°54.716 6.2829 3.121096 30.8787 1.228171
2009-12-18 07:56:55 51°15.151 2°54.711 6.2582 3.119129 30.874171 1.228171
2009-12-18 07:56:59 51°15.162 2°54.708 6.3145 3.122649 30.925487 1.262995
2009-12-18 07:57:05 51°15.178 2°54.701 6.2252 3.124202 30.963829 1.262995
2009-12-18 07:57:10 51°15.192 2°54.694 6.2304 3.125548 30.987129 1.262995
2009-12-18 07:57:15 51°15.206 2°54.687 6.2025 3.127929 31.017521 1.297819
2009-12-18 07:57:19 51°15.217 2°54.682 6.2151 3.127929 31.017521 1.297819
2009-12-18 07:57:25 51°15.233 2°54.674 6.1953 3.127308 31.019265 1.297819
2009-12-18 07:57:30 51°15.247 2°54.667 6.1937 3.129689 31.04882 1.332643
2009-12-18 07:57:35 51°15.261 2°54.659 6.2021 3.131345 31.068715 1.367467
2009-12-18 07:57:39 51°15.272 2°54.653 6.2041 3.132691 31.095504 1.402292
2009-12-18 07:57:45 51°15.288 2°54.643 6.1982 3.130207 31.087106 1.437116
2009-12-18 07:57:50 51°15.302 2°54.636 6.2049 3.13352 31.139855 1.437116
2009-12-18 07:57:55 51°15.315 2°54.627 6.2112 3.13352 31.139855 1.437116
2009-12-18 07:57:59 51°15.327 2°54.621 6.2055 3.131346 31.126281 1.47194
2009-12-18 07:58:05 51°15.343 2°54.61 6.1872 3.131553 31.136308 1.506764
2009-12-18 07:58:10 51°15.357 2°54.602 6.202 3.130725 31.130643 1.541588
2009-12-18 07:58:15 51°15.371 2°54.594 6.1942 3.131243 31.134615 1.576412
2009-12-18 07:58:20 51°15.384 2°54.586 6.1916 3.131243 31.134615 1.576412
2009-12-18 07:58:25 51°15.398 2°54.578 6.1874 3.132795 31.151698 1.576412
2009-12-18 07:58:30 51°15.411 2°54.57 6.2051 3.134245 31.17023 1.576412
2009-12-18 07:58:35 51°15.425 2°54.561 6.2292 3.134659 31.178237 1.611236
2009-12-18 07:58:40 51°15.438 2°54.553 6.1996 3.135177 31.187385 1.611236
2009-12-18 07:58:45 51°15.451 2°54.544 6.2023 3.134452 31.180273 1.611236
2009-12-18 07:58:50 51°15.465 2°54.536 6.2199 3.134452 31.180273 1.611236
2009-12-18 07:58:55 51°15.478 2°54.528 6.2078 3.132174 31.157795 1.611236
2009-12-18 07:58:59 51°15.489 2°54.522 6.2191 3.133313 31.175506 1.611236
2009-12-18 07:59:05 51°15.505 2°54.514 6.1967 3.13352 31.175196 1.576412
2009-12-18 07:59:10 51°15.518 2°54.508 6.1971 3.133106 31.165461 1.541588
2009-12-18 07:59:15 51°15.532 2°54.502 6.1912 3.134763 31.18628 1.541588
2009-12-18 07:59:19 51°15.542 2°54.497 6.1966 3.135694 31.195673 1.47194
2009-12-18 07:59:25 51°15.558 2°54.489 6.1894 3.135694 31.195673 1.47194
2009-12-18 07:59:30 51°15.572 2°54.483 6.1881 3.135384 31.190527 1.47194
2009-12-18 07:59:35 51°15.585 2°54.478 6.1874 3.139318 31.23383 1.437116
2009-12-18 07:59:39 51°15.596 2°54.473 6.2026 3.140871 31.256116 1.367467
2009-12-18 07:59:45 51°15.612 2°54.466 6.1981 3.140456 31.255017 1.367467
2009-12-18 07:59:50 51°15.626 2°54.46 6.2124 3.141492 31.270747 1.332643
2009-12-18 07:59:55 51°15.64 2°54.455 6.2045 3.141492 31.270747 1.332643
2009-12-18 07:59:59 51°15.651 2°54.45 6.1993 3.142527 31.286481 1.332643
2009-12-18 08:00:05 51°15.668 2°54.444 6.1952 3.141906 31.283104 1.332643
2009-12-18 08:00:10 51°15.681 2°54.438 6.215 3.141285 31.277993 1.332643
2009-12-18 08:00:15 51°15.695 2°54.432 6.2121 3.141595 31.279682 1.297819
2009-12-18 08:00:19 51°15.707 2°54.428 6.2196 3.141595 31.279682 1.297819
2009-12-18 08:00:25 51°15.723 2°54.42 6.217 3.141078 31.269649 1.332643
2009-12-18 08:00:30 51°15.737 2°54.414 6.2105 3.140353 31.25907 1.332643
2009-12-18 08:00:35 51°15.751 2°54.409 6.2172 3.143873 31.298708 1.332643
2009-12-18 08:00:39 51°15.762 2°54.404 6.2194 3.143252 31.294465 1.332643
2009-12-18 08:00:45 51°15.779 2°54.398 6.2147 3.140767 31.265362 1.332643
2009-12-18 08:00:50 51°15.793 2°54.393 6.2262 3.140767 31.265362 1.332643
2009-12-18 08:00:55 51°15.807 2°54.387 6.2221 3.143873 31.295241 1.297819
2009-12-18 08:00:59 51°15.818 2°54.383 6.2306 3.145943 31.31458 1.297819
2009-12-18 08:01:05 51°15.835 2°54.377 6.2285 3.145943 31.313714 1.262995
2009-12-18 08:01:10 51°15.849 2°54.371 6.2226 3.148117 31.337661 1.228171
2009-12-18 08:01:15 51°15.863 2°54.366 6.2331 3.148946 31.346784 1.228171
2009-12-18 08:01:19 51°15.874 2°54.362 6.2362 3.148324 31.338206 1.193347
2009-12-18 08:01:25 51°15.891 2°54.355 6.2419 3.148324 31.338206 1.193347
2009-12-18 08:01:30 51°15.905 2°54.351 6.2529 3.149981 31.353849 1.193347
2009-12-18 08:01:35 51°15.919 2°54.345 6.2479 3.150188 31.353526 1.158523
2009-12-18 08:01:39 51°15.93 2°54.341 6.2469 3.152362 31.376604 1.158523
2009-12-18 08:01:45 51°15.947 2°54.334 6.2394 3.152673 31.379157 1.123699
2009-12-18 08:01:50 51°15.961 2°54.33 6.2453 3.155054 31.403648 1.123699
2009-12-18 08:01:55 51°15.975 2°54.325 6.2486 3.155054 31.403648 1.123699
2009-12-18 08:01:59 51°15.987 2°54.32 6.2494 3.156814 31.419558 1.123699
2009-12-18 08:02:05 51°16.004 2°54.314 6.2499 3.155364 31.399248 1.088875
2009-12-18 08:02:10 51°16.018 2°54.309 6.2567 3.155985 31.401745 1.088875
2009-12-18 08:02:15 51°16.031 2°54.304 6.2608 3.156917 31.412006 1.088875
2009-12-18 08:02:19 51°16.043 2°54.299 6.2611 3.156917 31.412006 1.088875
2009-12-18 08:02:25 51°16.058 2°54.293 6.266 3.157331 31.415697 1.088875
2009-12-18 08:02:30 51°16.071 2°54.287 6.2656 3.156813 31.409128 1.088875
2009-12-18 08:02:35 51°16.084 2°54.282 6.26 3.159195 31.43361 1.054051
2009-12-18 08:02:39 51°16.095 2°54.278 6.2661 3.160955 31.452122 1.088875
2009-12-18 08:02:45 51°16.109 2°54.273 6.2671 3.160748 31.446363 1.088875
2009-12-18 08:02:50 51°16.12 2°54.268 6.2655 3.160748 31.446363 1.088875
2009-12-18 08:02:55 51°16.13 2°54.264 6.2678 3.162922 31.467693 1.054051
2009-12-18 08:02:59 51°16.138 2°54.261 6.2633 3.164371 31.481913 1.054051
2009-12-18 08:03:05 51°16.149 2°54.256 6.265 3.146978 31.287872 1.054051
2009-12-18 08:03:10 51°16.157 2°54.252 6.2681 3.166131 31.499553 1.054051
2009-12-18 08:03:15 51°16.165 2°54.248 6.2694 3.167477 31.512631 1.054051
2009-12-18 08:03:19 51°16.17 2°54.245 6.2694 3.167477 31.512631 1.054051
2009-12-18 08:03:25 51°16.179 2°54.241 6.2723 3.167166 31.50834 1.054051
2009-12-18 08:03:30 51°16.185 2°54.239 6.2661 3.170169 31.540532 1.054051
2009-12-18 08:03:35 51°16.19 2°54.238 6.2711 3.169133 31.52913 1.054051
2009-12-18 08:03:39 51°16.194 2°54.236 6.2701 3.169651 31.533959 1.019227
2009-12-18 08:03:45 51°16.199 2°54.235 6.2645 3.171825 31.557903 1.019227
2009-12-18 08:03:50 51°16.203 2°54.234 6.265 3.171825 31.557903 1.019227
2009-12-18 08:03:55 51°16.207 2°54.234 6.2702 3.170997 31.548781 1.019227
2009-12-18 08:03:59 51°16.209 2°54.234 6.2753 3.172239 31.561591 1.019227
2009-12-18 08:04:05 51°16.213 2°54.233 6.2744 3.172964 31.569573 1.054051
2009-12-18 08:04:10 51°16.215 2°54.233 6.2718 3.172446 31.563872 1.019227
2009-12-18 08:04:15 51°16.218 2°54.233 6.27 3.173482 31.575274 1.019227
2009-12-18 08:04:19 51°16.22 2°54.233 6.271 3.173482 31.575274 1.019227
2009-12-18 08:04:25 51°16.222 2°54.234 6.2764 3.174103 31.582989 1.054051
2009-12-18 08:04:30 51°16.224 2°54.234 6.2771 3.173896 31.580709 1.054051
2009-12-18 08:04:35 51°16.225 2°54.236 6.2701 3.174931 31.591239 1.054051
2009-12-18 08:04:39 51°16.226 2°54.237 6.2738 3.175863 31.600629 1.054051
2009-12-18 08:04:45 51°16.227 2°54.239 6.2701 3.172861 31.568433 1.088875
2009-12-18 08:04:50 51°16.227 2°54.24 6.2719 3.172861 31.568433 1.088875
2009-12-18 08:04:55 51°16.228 2°54.241 6.2723 3.175345 31.595801 1.054051
2009-12-18 08:04:59 51°16.228 2°54.243 6.2698 3.175863 31.600629 1.088875
2009-12-18 08:05:05 51°16.228 2°54.244 6.2688 3.175345 31.59318 1.088875
2009-12-18 08:05:10 51°16.227 2°54.246 6.2688 3.176277 31.604317 1.088875
2009-12-18 08:05:15 51°16.228 2°54.246 6.2711 3.176381 31.606331 1.088875
2009-12-18 08:05:19 51°16.227 2°54.246 6.2662 3.176381 31.606331 1.088875
2009-12-18 08:05:25 51°16.226 2°54.247 6.2685 3.177105 31.616062 1.088875
2009-12-18 08:05:30 51°16.224 2°54.247 6.2663 3.176588 31.611234 1.088875
2009-12-18 08:05:35 51°16.224 2°54.246 6.2619 3.177934 31.626936 1.088875
2009-12-18 08:05:39 51°16.223 2°54.246 6.2604 3.17752 31.623248 1.088875
2009-12-18 08:05:45 51°16.222 2°54.246 6.2637 3.176691 31.614123 1.088875
2009-12-18 08:05:50 51°16.221 2°54.245 6.2656 3.176691 31.614123 1.088875
2009-12-18 08:05:55 51°16.22 2°54.244 6.2652 3.177002 31.619293 1.088875
2009-12-18 08:05:59 51°16.218 2°54.243 6.2632 3.176588 31.616479 1.088875
2009-12-18 08:06:05 51°16.217 2°54.242 6.2621 3.177209 31.624198 1.088875
2009-12-18 08:06:10 51°16.215 2°54.241 6.2645 3.177105 31.624806 1.088875
2009-12-18 08:06:15 51°16.214 2°54.239 6.2622 3.17607 31.615147 1.088875
2009-12-18 08:06:19 51°16.213 2°54.238 6.2573 3.17607 31.615147 1.088875
2009-12-18 08:06:25 51°16.211 2°54.236 6.258 3.176898 31.624274 1.088875
2009-12-18 08:06:30 51°16.209 2°54.234 6.2614 3.176174 31.615413 1.088875
2009-12-18 08:06:35 51°16.207 2°54.232 6.2587 3.177002 31.625415 1.088875
2009-12-18 08:06:39 51°16.207 2°54.231 6.2571 3.176898 31.624274 1.088875
2009-12-18 08:06:45 51°16.205 2°54.228 6.2563 3.177002 31.625415 1.088875
2009-12-18 08:06:50 51°16.203 2°54.226 6.2601 3.175967 31.615755 1.088875
2009-12-18 08:06:55 51°16.201 2°54.224 6.2569 3.175967 31.615755 1.088875
2009-12-18 08:06:59 51°16.201 2°54.221 6.2561 3.175656 31.614081 1.088875
2009-12-18 08:07:05 51°16.198 2°54.218 6.2584 3.176691 31.625491 1.088875
2009-12-18 08:07:10 51°16.197 2°54.216 6.2567 3.177209 31.632071 1.088875
2009-12-18 08:07:15 51°16.195 2°54.213 6.2544 3.176484 31.625833 1.088875
2009-12-18 08:07:19 51°16.194 2°54.211 6.2563 3.176484 31.625833 1.088875
2009-12-18 08:07:25 51°16.192 2°54.207 6.2513 3.176795 31.629256 1.088875
2009-12-18 08:07:30 51°16.19 2°54.204 6.252 3.177106 31.63268 1.088875
2009-12-18 08:07:35 51°16.189 2°54.201 6.254 3.176691 31.62899 1.088875
2009-12-18 08:07:39 51°16.187 2°54.198 6.2568 3.176898 31.631273 1.088875
2009-12-18 08:07:45 51°16.185 2°54.195 6.2551 3.177002 31.633289 1.088875
2009-12-18 08:07:50 51°16.183 2°54.191 6.2561 3.177002 31.633289 1.088875
2009-12-18 08:07:55 51°16.182 2°54.188 6.2547 3.17607 31.623893 1.088875
2009-12-18 08:07:59 51°16.18 2°54.185 6.2538 3.176174 31.626784 1.088875
2009-12-18 08:08:05 51°16.178 2°54.18 6.2545 3.176795 31.634507 1.088875
2009-12-18 08:08:10 51°16.176 2°54.176 6.2539 3.176691 31.633366 1.088875
2009-12-18 08:08:15 51°16.174 2°54.173 6.2518 3.17607 31.624768 1.088875
2009-12-18 08:08:19 51°16.173 2°54.169 6.2516 3.17607 31.624768 1.088875
2009-12-18 08:08:25 51°16.171 2°54.165 6.2556 3.174931 31.612215 1.088875
2009-12-18 08:08:30 51°16.169 2°54.16 6.255 3.176174 31.625909 1.088875
2009-12-18 08:08:35 51°16.167 2°54.156 6.2522 3.175138 31.616247 1.088875
2009-12-18 08:08:39 51°16.166 2°54.153 6.252 3.17576 31.623969 1.088875
2009-12-18 08:08:45 51°16.164 2°54.148 6.2545 3.176484 31.631959 1.088875
2009-12-18 08:08:50 51°16.162 2°54.143 6.2543 3.176484 31.631959 1.088875
2009-12-18 08:08:55 51°16.161 2°54.139 6.2486 3.176691 31.635117 1.088875
2009-12-18 08:08:59 51°16.159 2°54.136 6.2532 3.177002 31.638541 1.088875
2009-12-18 08:09:05 51°16.157 2°54.13 6.2574 3.175449 31.621421 1.088875
2009-12-18 08:09:10 51°16.155 2°54.125 6.2503 3.176691 31.635117 1.088875
2009-12-18 08:09:15 51°16.154 2°54.121 6.2497 3.177002 31.638541 1.088875
2009-12-18 08:09:19 51°16.152 2°54.117 6.2529 3.177002 31.638541 1.088875
2009-12-18 08:09:25 51°16.151 2°54.112 6.2554 3.176484 31.632834 1.088875
2009-12-18 08:09:30 51°16.149 2°54.108 6.2569 3.176795 31.637133 1.088875
2009-12-18 08:09:35 51°16.148 2°54.103 6.2537 3.176174 31.63116 1.088875
2009-12-18 08:09:39 51°16.147 2°54.1 6.2517 3.175242 31.620888 1.088875
2009-12-18 08:09:45 51°16.145 2°54.095 6.2485 3.175967 31.629753 1.088875
2009-12-18 08:09:50 51°16.143 2°54.091 6.256 3.175967 31.629753 1.088875
2009-12-18 08:09:55 51°16.142 2°54.086 6.2527 3.174 31.608067 1.088875
2009-12-18 08:09:59 51°16.141 2°54.083 6.248 3.175656 31.625453 1.088875
2009-12-18 08:10:05 51°16.139 2°54.078 6.2458 3.17576 31.626595 1.088875
2009-12-18 08:10:10 51°16.137 2°54.073 6.2484 3.176174 31.63116 1.088875
2009-12-18 08:10:15 51°16.135 2°54.07 6.2527 3.176381 31.634319 1.088875
2009-12-18 08:10:19 51°16.134 2°54.066 6.2531 3.177002 31.642043 1.088875
2009-12-18 08:10:25 51°16.131 2°54.063 6.2466 3.177002 31.642043 1.088875
2009-12-18 08:10:30 51°16.128 2°54.059 6.2519 3.174517 31.614648 1.088875
2009-12-18 08:10:35 51°16.126 2°54.056 6.2511 3.174414 31.614382 1.088875
2009-12-18 08:10:39 51°16.123 2°54.052 6.2468 3.17576 31.630971 1.088875
2009-12-18 08:10:45 51°16.119 2°54.049 6.2525 3.176588 31.64098 1.088875
2009-12-18 08:10:50 51°16.115 2°54.045 6.2476 3.176588 31.64098 1.088875
2009-12-18 08:10:55 51°16.111 2°54.041 6.2498 3.177002 31.64467 1.088875
2009-12-18 08:10:59 51°16.108 2°54.038 6.2469 3.175967 31.633254 1.088875
2009-12-18 08:11:05 51°16.102 2°54.033 6.2455 3.176484 31.638087 1.088875
2009-12-18 08:11:10 51°16.098 2°54.028 6.2481 3.176174 31.635537 1.088875
2009-12-18 08:11:15 51°16.093 2°54.023 6.25 3.17576 31.630971 1.088875
2009-12-18 08:11:19 51°16.09 2°54.018 6.2456 3.17576 31.630971 1.088875
2009-12-18 08:11:25 51°16.084 2°54.009 6.2482 3.17576 31.630971 1.088875
2009-12-18 08:11:30 51°16.079 2°54.003 6.2517 3.176484 31.638962 1.088875
2009-12-18 08:11:35 51°16.075 2°53.995 6.2464 3.17576 31.631847 1.088875
2009-12-18 08:11:39 51°16.072 2°53.988 6.2486 3.176692 31.642997 1.088875
2009-12-18 08:11:45 51°16.067 2°53.979 6.2462 3.175967 31.635005 1.088875
2009-12-18 08:11:50 51°16.064 2°53.969 6.2453 3.175967 31.635005 1.088875
2009-12-18 08:11:55 51°16.061 2°53.959 6.244 3.175035 31.623856 1.123699
2009-12-18 08:11:59 51°16.059 2°53.951 6.2469 3.175035 31.623856 1.123699
2009-12-18 08:12:05 51°16.056 2°53.939 6.2472 3.176795 31.643263 1.123699
2009-12-18 08:12:10 51°16.055 2°53.929 6.2494 3.175553 31.629564 1.123699
2009-12-18 08:12:15 51°16.054 2°53.918 6.2474 3.173379 31.605592 1.123699
2009-12-18 08:12:19 51°16.053 2°53.91 6.2505 3.176899 31.64528 1.123699
2009-12-18 08:12:25 51°16.053 2°53.898 6.2541 3.176899 31.64528 1.123699
2009-12-18 08:12:30 51°16.054 2°53.888 6.2566 3.17607 31.637023 1.123699
2009-12-18 08:12:35 51°16.054 2°53.878 6.2584 3.177106 31.647564 1.158523
2009-12-18 08:12:39 51°16.055 2°53.87 6.2593 3.175656 31.631581 1.158523
2009-12-18 08:12:45 51°16.058 2°53.859 6.2565 3.176795 31.643263 1.158523
2009-12-18 08:12:50 51°16.06 2°53.85 6.2597 3.176795 31.643263 1.158523
2009-12-18 08:12:55 51°16.063 2°53.841 6.2547 3.176174 31.635537 1.158523
2009-12-18 08:13:00 51°16.066 2°53.832 6.2607 3.174103 31.610958 1.123699
2009-12-18 08:13:05 51°16.071 2°53.823 6.2615 3.176692 31.635992 1.158523
2009-12-18 08:13:10 51°16.075 2°53.816 6.2514 3.177416 31.642231 1.123699
2009-12-18 08:13:15 51°16.081 2°53.808 6.2557 3.176381 31.629942 1.123699
2009-12-18 08:13:20 51°16.087 2°53.8 6.2527 3.176381 31.629942 1.123699
2009-12-18 08:13:25 51°16.093 2°53.793 6.2463 3.178348 31.651628 1.123699
2009-12-18 08:13:30 51°16.1 2°53.784 6.2501 3.178762 31.655317 1.123699
2009-12-18 08:13:35 51°16.107 2°53.775 6.2499 3.178866 31.655583 1.123699
2009-12-18 08:13:39 51°16.113 2°53.767 6.2467 3.177416 31.639604 1.123699
2009-12-18 08:13:45 51°16.122 2°53.753 6.2495 3.177002 31.63679 1.123699
2009-12-18 08:13:50 51°16.13 2°53.741 6.2526 3.177002 31.63679 1.123699
2009-12-18 08:13:55 51°16.137 2°53.727 6.2507 3.177416 31.643106 1.123699
2009-12-18 08:13:59 51°16.144 2°53.716 6.2457 3.178555 31.657414 1.123699
2009-12-18 08:14:05 51°16.154 2°53.698 6.2482 3.178348 31.657759 1.123699
2009-12-18 08:14:10 51°16.162 2°53.682 6.2473 3.179073 31.666627 1.123699
2009-12-18 08:14:15 51°16.171 2°53.665 6.2447 3.178969 31.666362 1.123699
2009-12-18 08:14:19 51°16.178 2°53.652 6.244 3.178969 31.666362 1.123699
2009-12-18 08:14:25 51°16.19 2°53.632 6.2418 3.177209 31.646953 1.123699
2009-12-18 08:14:30 51°16.199 2°53.615 6.2401 3.176484 31.638962 1.123699
2009-12-18 08:14:35 51°16.21 2°53.6 6.2433 3.177934 31.655821 1.123699
2009-12-18 08:14:39 51°16.218 2°53.586 6.2443 3.17576 31.631847 1.123699
2009-12-18 08:14:45 51°16.23 2°53.567 6.2404 3.177727 31.654414 1.123699
2009-12-18 08:14:50 51°16.242 2°53.552 6.2383 3.177727 31.654414 1.123699
2009-12-18 08:14:55 51°16.252 2°53.536 6.2377 3.17752 31.653883 1.123699
2009-12-18 08:14:59 51°16.262 2°53.525 6.2373 3.17783 31.658184 1.123699
2009-12-18 08:15:05 51°16.275 2°53.508 6.2321 3.17576 31.636225 1.123699
2009-12-18 08:15:10 51°16.287 2°53.495 6.2269 3.175656 31.635083 1.123699
2009-12-18 08:15:15 51°16.299 2°53.482 6.2274 3.173586 31.61225 1.123699
2009-12-18 08:15:19 51°16.308 2°53.472 6.2185 3.173586 31.61225 1.123699
2009-12-18 08:15:25 51°16.322 2°53.456 6.2194 3.175035 31.629108 1.123699
2009-12-18 08:15:30 51°16.333 2°53.443 6.2188 3.175863 31.639994 1.123699
2009-12-18 08:15:35 51°16.345 2°53.43 6.2131 3.175449 31.637178 1.123699
2009-12-18 08:15:39 51°16.355 2°53.418 6.2237 3.175139 31.635505 1.123699
2009-12-18 08:15:45 51°16.369 2°53.402 6.2131 3.174725 31.63444 1.158523
2009-12-18 08:15:50 51°16.38 2°53.388 6.2075 3.173482 31.624239 1.123699
2009-12-18 08:15:55 51°16.392 2°53.373 6.2146 3.173482 31.624239 1.123699
2009-12-18 08:15:59 51°16.401 2°53.362 6.2165 3.173482 31.628619 1.123699
2009-12-18 08:16:05 51°16.415 2°53.344 6.2133 3.170376 31.59698 1.123699
2009-12-18 08:16:10 51°16.427 2°53.33 6.2103 3.171205 31.608744 1.123699
2009-12-18 08:16:15 51°16.438 2°53.314 6.2098 3.170791 31.60505 1.123699
2009-12-18 08:16:19 51°16.447 2°53.302 6.2114 3.170791 31.60505 1.123699
2009-12-18 08:16:25 51°16.461 2°53.284 6.2165 3.17048 31.603374 1.123699
2009-12-18 08:16:30 51°16.473 2°53.269 6.2217 3.171205 31.612247 1.123699
2009-12-18 08:16:35 51°16.484 2°53.253 6.2251 3.170273 31.601965 1.088875
2009-12-18 08:16:39 51°16.494 2°53.241 6.2276 3.170169 31.601698 1.123699
2009-12-18 08:16:45 51°16.508 2°53.222 6.2357 3.169341 31.59431 1.088875
2009-12-18 08:16:50 51°16.519 2°53.208 6.2456 3.169341 31.59431 1.088875
2009-12-18 08:16:55 51°16.53 2°53.193 6.2455 3.170791 31.611181 1.088875
2009-12-18 08:16:59 51°16.54 2°53.181 6.2555 3.169755 31.59888 1.088875
2009-12-18 08:17:05 51°16.553 2°53.162 6.251 3.170894 31.60882 1.054051
2009-12-18 08:17:10 51°16.565 2°53.148 6.2624 3.173482 31.633876 1.054051
2009-12-18 08:17:15 51°16.576 2°53.132 6.2723 3.174 31.633454 1.054051
2009-12-18 08:17:19 51°16.586 2°53.121 6.2712 3.174 31.633454 1.054051
2009-12-18 08:17:25 51°16.599 2°53.103 6.2763 3.174518 31.633908 1.054051
2009-12-18 08:17:30 51°16.611 2°53.088 6.2856 3.176588 31.651492 1.019227
2009-12-18 08:17:35 51°16.622 2°53.073 6.2914 3.178659 31.669949 1.019227
2009-12-18 08:17:39 51°16.632 2°53.062 6.2938 3.178969 31.668991 1.019227
2009-12-18 08:17:45 51°16.645 2°53.043 6.3012 3.181247 31.687973 0.984403
2009-12-18 08:17:50 51°16.656 2°53.029 6.3109 3.182593 31.697553 0.984403
2009-12-18 08:17:55 51°16.667 2°53.014 6.3124 3.182593 31.697553 0.984403
2009-12-18 08:17:59 51°16.677 2°53.002 6.3176 3.184353 31.711697 0.949579
2009-12-18 08:18:05 51°16.69 2°52.985 6.3222 3.184249 31.704416 0.949579
2009-12-18 08:18:10 51°16.701 2°52.969 6.3258 3.186631 31.724525 0.914755
2009-12-18 08:18:15 51°16.713 2°52.955 6.3346 3.189529 31.749457 0.914755
2009-12-18 08:18:19 51°16.722 2°52.943 6.3363 3.189529 31.749457 0.914755
2009-12-18 08:18:25 51°16.735 2°52.926 6.3454 3.18984 31.746737 0.914755
2009-12-18 08:18:30 51°16.747 2°52.912 6.3445 3.192532 31.770255 0.879931
2009-12-18 08:18:35 51°16.758 2°52.897 6.3541 3.190979 31.747003 0.879931
2009-12-18 08:18:39 51°16.767 2°52.886 6.3571 3.195017 31.786218 0.845107
2009-12-18 08:18:45 51°16.78 2°52.869 6.3581 3.195638 31.787793 0.845107
2009-12-18 08:18:50 51°16.791 2°52.855 6.3651 3.195638 31.787793 0.845107
2009-12-18 08:18:55 51°16.803 2°52.84 6.3722 3.193567 31.759723 0.845107
2009-12-18 08:18:59 51°16.812 2°52.829 6.3767 3.198123 31.803745 0.810283
2009-12-18 08:19:05 51°16.825 2°52.812 6.382 3.19864 31.805056 0.810283
2009-12-18 08:19:10 51°16.836 2°52.797 6.3875 3.201539 31.830827 0.810283
2009-12-18 08:19:15 51°16.847 2°52.782 6.3942 3.202367 31.835554 0.775459
2009-12-18 08:19:20 51°16.858 2°52.768 6.401 3.203506 31.844577 0.810283
2009-12-18 08:19:25 51°16.869 2°52.754 6.4052 3.203506 31.844577 0.810283
2009-12-18 08:19:30 51°16.88 2°52.739 6.4131 3.204852 31.854121 0.775459
2009-12-18 08:19:35 51°16.891 2°52.724 6.4178 3.205888 31.859366 0.775459
2009-12-18 08:19:40 51°16.902 2°52.71 6.4243 3.207337 31.870045 0.775459
2009-12-18 08:19:45 51°16.913 2°52.695 6.4308 3.206198 31.851365 0.775459
2009-12-18 08:19:50 51°16.925 2°52.682 6.4383 3.207026 31.853452 0.775459
2009-12-18 08:19:55 51°16.936 2°52.668 6.4379 3.207026 31.853452 0.775459
2009-12-18 08:19:59 51°16.945 2°52.658 6.444 3.210029 31.879452 0.775459
2009-12-18 08:20:05 51°16.959 2°52.641 6.4513 3.209201 31.863318 0.775459
2009-12-18 08:20:10 51°16.971 2°52.629 6.4544 3.21241 31.892463 0.775459
2009-12-18 08:20:15 51°16.982 2°52.616 6.4596 3.214792 31.912496 0.775459
2009-12-18 08:20:19 51°16.992 2°52.606 6.4618 3.214792 31.912496 0.775459
2009-12-18 08:20:25 51°17.006 2°52.591 6.4663 3.216862 31.928231 0.775459
2009-12-18 08:20:30 51°17.017 2°52.579 6.4706 3.217173 31.92725 0.810283
2009-12-18 08:20:35 51°17.029 2°52.566 6.4721 3.217587 31.924772 0.775459
2009-12-18 08:20:39 51°17.038 2°52.556 6.4776 3.220072 31.946807 0.775459
2009-12-18 08:20:45 51°17.052 2°52.541 6.4811 3.219865 31.940137 0.775459
2009-12-18 08:20:50 51°17.063 2°52.53 6.4865 3.219865 31.940137 0.775459
2009-12-18 08:20:55 51°17.074 2°52.518 6.487 3.20102 31.727947 0.810283
2009-12-18 08:20:59 51°17.083 2°52.508 6.4926 3.223489 31.969403 0.810283
2009-12-18 08:21:05 51°17.096 2°52.493 6.4962 3.223903 31.969556 0.810283
2009-12-18 08:21:10 51°17.107 2°52.481 6.4995 3.223489 31.959734 0.810283
2009-12-18 08:21:15 51°17.118 2°52.47 6.504 3.226284 31.98692 0.810283
2009-12-18 08:21:19 51°17.127 2°52.46 6.5089 3.225456 31.97255 0.810283
2009-12-18 08:21:25 51°17.14 2°52.446 6.5071 3.225456 31.97255 0.810283
2009-12-18 08:21:30 51°17.151 2°52.434 6.5074 3.22763 31.992908 0.810283
2009-12-18 08:21:35 51°17.162 2°52.421 6.5136 3.228459 31.999365 0.810283
2009-12-18 08:21:39 51°17.171 2°52.411 6.518 3.229908 32.010004 0.845107
2009-12-18 08:21:45 51°17.185 2°52.397 6.5187 3.230529 32.013306 0.845107
2009-12-18 08:21:50 51°17.196 2°52.385 6.5197 3.230529 32.013306 0.845107
2009-12-18 08:21:55 51°17.208 2°52.372 6.5214 3.231358 32.018002 0.845107
2009-12-18 08:21:59 51°17.218 2°52.363 6.5256 3.231772 32.019909 0.845107
2009-12-18 08:22:05 51°17.232 2°52.348 6.5352 3.231772 32.017271 0.845107
2009-12-18 08:22:10 51°17.244 2°52.336 6.5349 3.230115 31.995575 0.845107
2009-12-18 08:22:15 51°17.255 2°52.324 6.5358 3.231565 32.007966 0.845107
2009-12-18 08:22:19 51°17.264 2°52.314 6.5355 3.231565 32.007966 0.845107
2009-12-18 08:22:25 51°17.278 2°52.299 6.5395 3.231254 32.001922 0.845107
2009-12-18 08:22:30 51°17.288 2°52.286 6.5419 3.233636 32.026293 0.845107
2009-12-18 08:22:36 51°17.3 2°52.272 6.5446 3.235499 32.043224 0.845107
2009-12-18 08:22:41 51°17.311 2°52.261 6.5432 3.235292 32.036555 0.845107
2009-12-18 08:22:46 51°17.322 2°52.249 6.545 3.23612 32.041246 0.845107
2009-12-18 08:22:51 51°17.332 2°52.236 6.5481 3.23612 32.041246 0.845107
2009-12-18 08:22:56 51°17.344 2°52.224 6.5498 3.237467 32.054252 0.845107
2009-12-18 08:23:00 51°17.352 2°52.214 6.554 3.237674 32.053005 0.845107
2009-12-18 08:23:06 51°17.366 2°52.2 6.5569 3.238709 32.062603 0.845107
2009-12-18 08:23:10 51°17.374 2°52.19 6.5602 3.239641 32.070184 0.845107
2009-12-18 08:23:15 51°17.386 2°52.179 6.5613 3.239848 32.071576 0.845107
2009-12-18 08:23:20 51°17.397 2°52.166 6.5637 3.240573 32.076885 0.845107
2009-12-18 08:23:25 51°17.409 2°52.154 6.5664 3.240573 32.076885 0.845107
2009-12-18 08:23:30 51°17.42 2°52.142 6.5677 3.239744 32.066042 0.845107
2009-12-18 08:23:35 51°17.432 2°52.13 6.5723 3.241194 32.078419 0.845107
2009-12-18 08:23:40 51°17.444 2°52.118 6.5746 3.241401 32.078051 0.845107
2009-12-18 08:23:45 51°17.455 2°52.105 6.5753 3.241298 32.074277 0.845107
2009-12-18 08:23:50 51°17.467 2°52.093 6.5773 3.241298 32.074277 0.845107
2009-12-18 08:23:55 51°17.479 2°52.081 6.5822 3.242022 32.080464 0.845107
2009-12-18 08:23:59 51°17.488 2°52.07 6.5844 3.243265 32.091447 0.845107
2009-12-18 08:24:05 51°17.503 2°52.056 6.5848 3.244507 32.101549 0.845107
2009-12-18 08:24:10 51°17.514 2°52.043 6.5905 3.244197 32.095504 0.845107
2009-12-18 08:24:15 51°17.526 2°52.032 6.5936 3.245232 32.103335 0.845107
2009-12-18 08:24:19 51°17.535 2°52.021 6.5969 3.245232 32.103335 0.845107
2009-12-18 08:24:25 51°17.549 2°52.006 6.5994 3.244818 32.097036 0.845107
2009-12-18 08:24:30 51°17.561 2°51.994 6.6037 3.245025 32.096667 0.845107
2009-12-18 08:24:35 51°17.573 2°51.981 6.6067 3.245957 32.104241 0.845107
2009-12-18 08:24:39 51°17.582 2°51.972 6.6096 3.247303 32.115472 0.845107
2009-12-18 08:24:45 51°17.596 2°51.956 6.612 3.248235 32.123044 0.810283
2009-12-18 08:24:50 51°17.607 2°51.944 6.6175 3.248028 32.117256 0.810283
2009-12-18 08:24:55 51°17.619 2°51.932 6.6161 3.248028 32.117256 0.810283
2009-12-18 08:24:59 51°17.628 2°51.921 6.6165 3.247199 32.104663 0.810283
2009-12-18 08:25:05 51°17.642 2°51.906 6.6217 3.24751 32.104549 0.810283
2009-12-18 08:25:10 51°17.653 2°51.893 6.6242 3.247406 32.099898 0.810283
2009-12-18 08:25:15 51°17.665 2°51.881 6.6261 3.250099 32.125867 0.810283
2009-12-18 08:25:19 51°17.673 2°51.87 6.6311 3.250099 32.125867 0.810283
2009-12-18 08:25:25 51°17.687 2°51.856 6.6318 3.251548 32.139105 0.810283
2009-12-18 08:25:30 51°17.698 2°51.843 6.6367 3.251962 32.140122 0.810283
2009-12-18 08:25:35 51°17.709 2°51.831 6.6374 3.252273 32.140885 0.810283
2009-12-18 08:25:39 51°17.718 2°51.82 6.64 3.253412 32.150718 0.775459
2009-12-18 08:25:45 51°17.732 2°51.806 6.64 3.252998 32.142664 0.775459
2009-12-18 08:25:50 51°17.743 2°51.793 6.6416 3.252998 32.142664 0.775459
2009-12-18 08:25:55 51°17.755 2°51.781 6.6443 3.254655 32.158164 0.775459
2009-12-18 08:25:59 51°17.764 2°51.77 6.6442 3.254344 32.150364 0.775459
2009-12-18 08:26:05 51°17.779 2°51.756 6.645 3.255172 32.157673 0.775459
2009-12-18 08:26:10 51°17.79 2°51.743 6.6476 3.255586 32.159568 0.740634
2009-12-18 08:26:15 51°17.802 2°51.731 6.6506 3.256001 32.161463 0.775459
2009-12-18 08:26:19 51°17.812 2°51.72 6.6526 3.256001 32.161463 0.775459
2009-12-18 08:26:25 51°17.826 2°51.706 6.654 3.254551 32.144717 0.740634
2009-12-18 08:26:30 51°17.838 2°51.694 6.652 3.256622 32.164744 0.740634
2009-12-18 08:26:35 51°17.85 2°51.681 6.6514 3.256725 32.164118 0.740634
2009-12-18 08:26:39 51°17.86 2°51.671 6.6518 3.257347 32.169158 0.740634
2009-12-18 08:26:45 51°17.874 2°51.656 6.6582 3.257761 32.171932 0.740634
2009-12-18 08:26:50 51°17.887 2°51.644 6.6543 3.256829 32.159975 0.740634
2009-12-18 08:26:55 51°17.898 2°51.631 6.653 3.256829 32.159975 0.740634
2009-12-18 08:27:00 51°17.909 2°51.619 6.6538 3.258175 32.172946 0.740634
2009-12-18 08:27:05 51°17.921 2°51.606 6.6526 3.258279 32.173199 0.740634
2009-12-18 08:27:10 51°17.933 2°51.594 6.6479 3.258071 32.170053 0.70581
2009-12-18 08:27:15 51°17.945 2°51.582 6.6489 3.259107 32.179624 0.70581
2009-12-18 08:27:19 51°17.954 2°51.57 6.6469 3.259107 32.179624 0.70581
2009-12-18 08:27:25 51°17.968 2°51.555 6.6484 3.259521 32.182397 0.70581
2009-12-18 08:27:30 51°17.98 2°51.542 6.6461 3.259107 32.177865 0.70581
2009-12-18 08:27:35 51°17.992 2°51.53 6.6426 3.260246 32.191207 0.70581
2009-12-18 08:27:40 51°18.003 2°51.517 6.6409 3.260142 32.190954 0.70581
2009-12-18 08:27:45 51°18.015 2°51.504 6.6378 3.256829 32.156458 0.70581
2009-12-18 08:27:50 51°18.027 2°51.491 6.6372 3.256829 32.156458 0.70581
2009-12-18 08:27:55 51°18.039 2°51.478 6.6349 3.257554 32.165268 0.70581
2009-12-18 08:28:00 51°18.051 2°51.465 6.6336 3.259107 32.183143 0.740634
2009-12-18 08:28:05 51°18.063 2°51.453 6.6291 3.258796 32.180624 0.70581
2009-12-18 08:28:10 51°18.075 2°51.44 6.6247 3.258486 32.178984 0.70581
2009-12-18 08:28:15 51°18.086 2°51.427 6.6199 3.258486 32.180744 0.740634
2009-12-18 08:28:20 51°18.097 2°51.414 6.616 3.258279 32.180237 0.740634
2009-12-18 08:28:25 51°18.108 2°51.402 6.6084 3.258279 32.180237 0.740634
2009-12-18 08:28:30 51°18.12 2°51.388 6.6118 3.256001 32.157065 0.740634
2009-12-18 08:28:35 51°18.131 2°51.377 6.6023 3.255586 32.154291 0.740634
2009-12-18 08:28:39 51°18.14 2°51.366 6.5987 3.256415 32.165996 0.740634
2009-12-18 08:28:45 51°18.154 2°51.351 6.5955 3.256001 32.165862 0.740634
2009-12-18 08:28:50 51°18.166 2°51.339 6.5949 3.253619 32.143309 0.740634
2009-12-18 08:28:55 51°18.178 2°51.326 6.5975 3.253619 32.143309 0.740634
2009-12-18 08:29:00 51°18.19 2°51.314 6.5871 3.254033 32.153121 0.740634
2009-12-18 08:29:05 51°18.201 2°51.301 6.5873 3.252998 32.145303 0.740634
2009-12-18 08:29:10 51°18.213 2°51.288 6.5809 3.251445 32.133573 0.740634
2009-12-18 08:29:15 51°18.225 2°51.275 6.5785 3.250616 32.128019 0.740634
2009-12-18 08:29:19 51°18.235 2°51.265 6.5798 3.250616 32.128019 0.740634
2009-12-18 08:29:25 51°18.249 2°51.25 6.5747 3.249788 32.123344 0.740634
2009-12-18 08:29:30 51°18.259 2°51.238 6.57 3.24896 32.11691 0.740634
2009-12-18 08:29:35 51°18.269 2°51.225 6.5817 3.247924 32.109965 0.740634
2009-12-18 08:29:39 51°18.278 2°51.216 6.5703 3.247199 32.105542 0.740634
2009-12-18 08:29:45 51°18.288 2°51.203 6.5663 3.246992 32.106791 0.740634
2009-12-18 08:29:49 51°18.296 2°51.194 6.5646 3.246992 32.106791 0.740634
2009-12-18 08:29:55 51°18.306 2°51.182 6.5591 3.246785 32.10716 0.740634
2009-12-18 08:30:00 51°18.315 2°51.171 6.5587 3.245957 32.100722 0.740634
2009-12-18 08:30:05 51°18.324 2°51.161 6.5577 3.245336 32.096553 0.740634
2009-12-18 08:30:10 51°18.332 2°51.15 6.5524 3.244818 32.091759 0.740634
2009-12-18 08:30:15 51°18.341 2°51.14 6.5564 3.244714 32.093263 0.70581
2009-12-18 08:30:20 51°18.349 2°51.13 6.5545 3.243575 32.083418 0.740634
2009-12-18 08:30:25 51°18.357 2°51.12 6.5466 3.243575 32.083418 0.740634
2009-12-18 08:30:30 51°18.365 2°51.109 6.5479 3.243058 32.081261 0.740634
2009-12-18 08:30:35 51°18.373 2°51.1 6.5482 3.242333 32.075076 0.740634
2009-12-18 08:30:40 51°18.381 2°51.09 6.5469 3.241919 32.073174 0.740634
2009-12-18 08:30:45 51°18.389 2°51.08 6.543 3.241919 32.074932 0.740634
2009-12-18 08:30:50 51°18.397 2°51.07 6.543 3.241919 32.074932 0.740634
2009-12-18 08:30:55 51°18.405 2°51.06 6.5406 3.240987 32.065596 0.70581
2009-12-18 08:30:59 51°18.411 2°51.052 6.5439 3.240987 32.069113 0.740634
2009-12-18 08:31:05 51°18.421 2°51.04 6.5452 3.240366 32.06494 0.740634
2009-12-18 08:31:10 51°18.429 2°51.03 6.5428 3.240055 32.063293 0.70581
2009-12-18 08:31:15 51°18.437 2°51.02 6.5446 3.23933 32.057104 0.70581
2009-12-18 08:31:20 51°18.445 2°51.011 6.5391 3.23933 32.057104 0.70581
2009-12-18 08:31:25 51°18.453 2°51.002 6.5395 3.239227 32.057727 0.70581
2009-12-18 08:31:30 51°18.461 2°50.993 6.5432 3.239123 32.05835 0.70581
2009-12-18 08:31:35 51°18.469 2°50.986 6.5555 3.236949 32.035388 0.740634
2009-12-18 08:31:40 51°18.476 2°50.981 6.558 3.238088 32.046997 0.70581
2009-12-18 08:31:45 51°18.483 2°50.977 6.5499 3.237777 32.043591 0.70581
2009-12-18 08:31:50 51°18.488 2°50.975 6.5559 3.237777 32.043591 0.70581
2009-12-18 08:31:55 51°18.492 2°50.973 6.5517 3.23757 32.0422 0.740634
2009-12-18 08:31:59 51°18.496 2°50.973 6.5439 3.236224 32.02832 0.740634
2009-12-18 08:32:05 51°18.5 2°50.973 6.5372 3.236949 32.033631 0.70581
2009-12-18 08:32:10 51°18.503 2°50.975 6.5379 3.236742 32.027847 0.70581
2009-12-18 08:32:15 51°18.506 2°50.976 6.5439 3.23788 32.036819 0.70581
2009-12-18 08:32:19 51°18.508 2°50.978 6.5436 3.23788 32.036819 0.70581
2009-12-18 08:32:25 51°18.51 2°50.981 6.5375 3.238191 32.038467 0.70581
2009-12-18 08:32:30 51°18.512 2°50.983 6.536 3.238605 32.043885 0.70581
2009-12-18 08:32:35 51°18.512 2°50.987 6.5351 3.238398 32.04513 0.70581
2009-12-18 08:32:39 51°18.513 2°50.989 6.5355 3.235913 32.021401 0.70581
2009-12-18 08:32:45 51°18.513 2°50.994 6.5364 3.237777 32.043591 0.70581
2009-12-18 08:32:50 51°18.513 2°50.997 6.5359 3.237777 32.043591 0.70581
2009-12-18 08:32:55 51°18.511 2°51.001 6.5367 3.237881 32.045605 0.70581
2009-12-18 08:32:59 51°18.51 2°51.004 6.5331 3.237674 32.045093 0.70581
2009-12-18 08:33:05 51°18.507 2°51.008 6.5327 3.236535 32.034361 0.70581
2009-12-18 08:33:10 51°18.506 2°51.01 6.5313 3.237259 32.044067 0.740634
2009-12-18 08:33:15 51°18.503 2°51.012 6.5311 3.236535 32.037876 0.70581
2009-12-18 08:33:19 51°18.501 2°51.013 6.5368 3.236535 32.037876 0.70581
2009-12-18 08:33:25 51°18.498 2°51.013 6.5349 3.236535 32.038755 0.70581
2009-12-18 08:33:30 51°18.495 2°51.013 6.535 3.236431 32.038499 0.70581
2009-12-18 08:33:35 51°18.492 2°51.012 6.5343 3.237259 32.047583 0.70581
2009-12-18 08:33:39 51°18.489 2°51.011 6.5371 3.236328 32.039121 0.740634
2009-12-18 08:33:45 51°18.486 2°51.009 6.5357 3.236431 32.041136 0.740634
2009-12-18 08:33:50 51°18.483 2°51.007 6.5321 3.236017 32.037472 0.70581
2009-12-18 08:33:55 51°18.48 2°51.005 6.5372 3.236017 32.037472 0.70581
2009-12-18 08:34:00 51°18.477 2°51.003 6.5317 3.236638 32.044287 0.70581
2009-12-18 08:34:05 51°18.474 2°51.001 6.536 3.235913 32.036337 0.740634
2009-12-18 08:34:10 51°18.471 2°50.999 6.536 3.236224 32.039744 0.70581
2009-12-18 08:34:15 51°18.469 2°50.997 6.5352 3.236224 32.039744 0.70581
2009-12-18 08:34:20 51°18.466 2°50.994 6.5348 3.236224 32.039744 0.70581
2009-12-18 08:34:25 51°18.463 2°50.991 6.535 3.236431 32.042894 0.70581
2009-12-18 08:34:30 51°18.461 2°50.989 6.5337 3.236328 32.041759 0.70581
2009-12-18 08:34:35 51°18.458 2°50.986 6.5349 3.235603 32.033809 0.70581
2009-12-18 08:34:40 51°18.456 2°50.983 6.5348 3.2326 31.999999 0.70581
2009-12-18 08:34:45 51°18.453 2°50.979 6.5319 3.234464 32.020438 0.70581
2009-12-18 08:34:50 51°18.451 2°50.977 6.5388 3.234464 32.020438 0.70581
2009-12-18 08:34:55 51°18.448 2°50.973 6.5363 3.236431 32.042015 0.70581
2009-12-18 08:35:00 51°18.445 2°50.97 6.5365 3.236535 32.043151 0.740634
2009-12-18 08:35:05 51°18.443 2°50.966 6.5348 3.235603 32.032051 0.70581
2009-12-18 08:35:10 51°18.44 2°50.963 6.5359 3.236017 32.036593 0.70581
2009-12-18 08:35:15 51°18.438 2°50.959 6.5358 3.235706 32.034066 0.70581
2009-12-18 08:35:19 51°18.436 2°50.956 6.5402 3.235706 32.034066 0.70581
2009-12-18 08:35:25 51°18.433 2°50.952 6.5352 3.235603 32.03293 0.70581
2009-12-18 08:35:30 51°18.43 2°50.948 6.5372 3.235396 32.02978 0.70581
2009-12-18 08:35:35 51°18.428 2°50.945 6.5359 3.236535 32.042272 0.70581
2009-12-18 08:35:39 51°18.426 2°50.942 6.5355 3.236328 32.04 0.70581
2009-12-18 08:35:45 51°18.424 2°50.937 6.5332 3.236431 32.041136 0.70581
2009-12-18 08:35:50 51°18.422 2°50.934 6.5347 3.235706 32.033187 0.70581
2009-12-18 08:35:55 51°18.419 2°50.93 6.5357 3.235706 32.033187 0.70581
2009-12-18 08:35:59 51°18.417 2°50.927 6.5351 3.236224 32.038865 0.70581
2009-12-18 08:36:05 51°18.415 2°50.922 6.5375 3.23581 32.034322 0.70581
2009-12-18 08:36:10 51°18.413 2°50.919 6.5364 3.23612 32.03685 0.70581
2009-12-18 08:36:15 51°18.41 2°50.915 6.5399 3.235603 32.032051 0.70581
2009-12-18 08:36:20 51°18.408 2°50.911 6.5367 3.235603 32.032051 0.70581
2009-12-18 08:36:25 51°18.406 2°50.907 6.5365 3.235913 32.036337 0.70581
2009-12-18 08:36:30 51°18.404 2°50.903 6.5362 3.235913 32.035458 0.70581
2009-12-18 08:36:35 51°18.402 2°50.899 6.5367 3.23612 32.037729 0.70581
2009-12-18 08:36:40 51°18.4 2°50.895 6.5363 3.235603 32.032051 0.670986
2009-12-18 08:36:45 51°18.398 2°50.891 6.5368 3.235292 32.026887 0.70581
2009-12-18 08:36:50 51°18.396 2°50.887 6.5364 3.235292 32.026887 0.70581
2009-12-18 08:36:55 51°18.393 2°50.883 6.5367 3.236017 32.034836 0.670986
2009-12-18 08:37:00 51°18.391 2°50.878 6.5423 3.235189 32.02663 0.70581
2009-12-18 08:37:05 51°18.389 2°50.875 6.5411 3.23612 32.03685 0.70581
2009-12-18 08:37:10 51°18.387 2°50.871 6.5377 3.236017 32.036593 0.670986
2009-12-18 08:37:15 51°18.385 2°50.867 6.5366 3.234671 32.020952 0.670986
2009-12-18 08:37:19 51°18.383 2°50.863 6.5353 3.234671 32.020952 0.670986
2009-12-18 08:37:25 51°18.381 2°50.859 6.5346 3.235603 32.031172 0.670986
2009-12-18 08:37:30 51°18.378 2°50.854 6.5328 3.235603 32.031172 0.670986
2009-12-18 08:37:35 51°18.376 2°50.851 6.5368 3.236224 32.037107 0.670986
2009-12-18 08:37:39 51°18.374 2°50.847 6.5332 3.236017 32.033957 0.670986
2009-12-18 08:37:45 51°18.37 2°50.843 6.54 3.235913 32.0337 0.670986
2009-12-18 08:37:50 51°18.367 2°50.84 6.5356 3.235913 32.0337 0.670986
2009-12-18 08:37:55 51°18.365 2°50.835 6.5343 3.235292 32.027765 0.670986
2009-12-18 08:37:59 51°18.361 2°50.832 6.5336 3.234878 32.024102 0.670986
2009-12-18 08:38:05 51°18.357 2°50.828 6.5293 3.235913 32.036337 0.670986
2009-12-18 08:38:10 51°18.353 2°50.824 6.5328 3.234464 32.01956 0.670986
2009-12-18 08:38:15 51°18.349 2°50.819 6.5329 3.23612 32.037729 0.670986
2009-12-18 08:38:19 51°18.346 2°50.816 6.5324 3.23612 32.037729 0.670986
2009-12-18 08:38:25 51°18.341 2°50.81 6.5325 3.236017 32.036593 0.670986
2009-12-18 08:38:30 51°18.336 2°50.805 6.532 3.236017 32.037472 0.670986
2009-12-18 08:38:35 51°18.331 2°50.799 6.5316 3.235292 32.030402 0.670986
2009-12-18 08:38:39 51°18.327 2°50.794 6.5345 3.235913 32.038974 0.670986
2009-12-18 08:38:45 51°18.321 2°50.786 6.5361 3.234464 32.023074 0.670986
2009-12-18 08:38:50 51°18.315 2°50.778 6.5354 3.234464 32.023074 0.670986
2009-12-18 08:38:55 51°18.311 2°50.769 6.5395 3.234567 32.02421 0.670986
2009-12-18 08:38:59 51°18.307 2°50.762 6.5338 3.233532 32.012854 0.636162
2009-12-18 08:39:05 51°18.302 2°50.75 6.5348 3.235189 32.031024 0.670986
2009-12-18 08:39:10 51°18.298 2°50.739 6.5408 3.234671 32.025346 0.670986
2009-12-18 08:39:15 51°18.295 2°50.728 6.5348 3.235292 32.031281 0.670986
2009-12-18 08:39:19 51°18.293 2°50.718 6.5382 3.234567 32.021574 0.670986
2009-12-18 08:39:25 51°18.291 2°50.703 6.5377 3.234567 32.021574 0.670986
2009-12-18 08:39:30 51°18.291 2°50.69 6.5467 3.23405 32.014139 0.670986
2009-12-18 08:39:35 51°18.292 2°50.677 6.5395 3.23581 32.033443 0.670986
2009-12-18 08:39:40 51°18.292 2°50.662 6.5338 3.235292 32.027765 0.670986
2009-12-18 08:39:45 51°18.293 2°50.647 6.53 3.235292 32.026008 0.670986
2009-12-18 08:39:50 51°18.294 2°50.63 6.5316 3.235292 32.026008 0.670986
2009-12-18 08:39:55 51°18.296 2°50.612 6.5358 3.233014 32.001029 0.670986
2009-12-18 08:39:59 51°18.296 2°50.597 6.5324 3.235396 32.025386 0.670986
2009-12-18 08:40:04 51°18.298 2°50.577 6.5375 3.235396 32.023629 0.670986
2009-12-18 08:40:10 51°18.3 2°50.551 6.5324 3.236431 32.035862 0.70581
2009-12-18 08:40:15 51°18.302 2°50.529 6.5349 3.234567 32.018938 0.70581
2009-12-18 08:40:19 51°18.303 2°50.51 6.5357 3.234567 32.018938 0.70581
2009-12-18 08:40:25 51°18.307 2°50.483 6.5397 3.2326 31.999121 0.70581
2009-12-18 08:40:30 51°18.308 2°50.458 6.5446 3.232393 31.998606 0.70581
2009-12-18 08:40:35 51°18.311 2°50.434 6.5435 3.234567 32.021574 0.670986
2009-12-18 08:40:39 51°18.314 2°50.415 6.5403 3.235189 32.028387 0.70581
2009-12-18 08:40:45 51°18.315 2°50.384 6.5476 3.235603 32.03293 0.70581
2009-12-18 08:40:49 51°18.318 2°50.365 6.5449 3.235603 32.03293 0.70581
2009-12-18 08:40:55 51°18.321 2°50.335 6.5453 3.235085 32.026373 0.70581
2009-12-18 08:40:59 51°18.321 2°50.314 6.5468 3.235396 32.028022 0.70581
2009-12-18 08:41:05 51°18.325 2°50.283 6.5461 3.236431 32.036741 0.70581
2009-12-18 08:41:10 51°18.326 2°50.257 6.5499 3.236535 32.036998 0.70581
2009-12-18 08:41:15 51°18.327 2°50.231 6.5521 3.236949 32.040661 0.70581
2009-12-18 08:41:20 51°18.329 2°50.205 6.5543 3.23612 32.031577 0.670986
2009-12-18 08:41:25 51°18.33 2°50.179 6.5578 3.23612 32.031577 0.670986
2009-12-18 08:41:30 51°18.331 2°50.153 6.5654 3.237259 32.043188 0.70581
2009-12-18 08:41:35 51°18.334 2°50.127 6.5676 3.234774 32.015939 0.70581
2009-12-18 08:41:40 51°18.334 2°50.1 6.5706 3.238398 32.054799 0.70581
2009-12-18 08:41:45 51°18.335 2°50.074 6.5713 3.238709 32.056447 0.70581
2009-12-18 08:41:50 51°18.336 2°50.048 6.5771 3.238709 32.056447 0.70581
2009-12-18 08:41:55 51°18.336 2°50.021 6.5773 3.23757 32.041321 0.670986
2009-12-18 08:41:59 51°18.338 2°50 6.579 3.237673 32.038063 0.670986
2009-12-18 08:42:05 51°18.338 2°49.968 6.5858 3.240883 32.069736 0.70581
2009-12-18 08:42:10 51°18.338 2°49.942 6.5859 3.240469 32.061679 0.70581
2009-12-18 08:42:15 51°18.339 2°49.915 6.5902 3.239951 32.053368 0.70581
2009-12-18 08:42:19 51°18.338 2°49.893 6.5927 3.239951 32.053368 0.70581
2009-12-18 08:42:25 51°18.34 2°49.862 6.6019 3.240987 32.061202 0.670986
2009-12-18 08:42:30 51°18.339 2°49.835 6.6016 3.241401 32.063105 0.670986
2009-12-18 08:42:35 51°18.339 2°49.808 6.6093 3.241504 32.060725 0.670986
2009-12-18 08:42:39 51°18.339 2°49.787 6.6122 3.242851 32.072839 0.670986
2009-12-18 08:42:45 51°18.34 2°49.755 6.6142 3.242747 32.068189 0.670986
2009-12-18 08:42:50 51°18.34 2°49.728 6.6181 3.243575 32.07375 0.670986
2009-12-18 08:42:55 51°18.341 2°49.702 6.6171 3.243575 32.07375 0.670986
2009-12-18 08:42:59 51°18.34 2°49.68 6.6187 3.243989 32.073894 0.670986
2009-12-18 08:43:05 51°18.341 2°49.649 6.6216 3.246992 32.101515 0.670986
2009-12-18 08:43:10 51°18.342 2°49.623 6.6257 3.245128 32.076707 0.670986
2009-12-18 08:43:15 51°18.34 2°49.596 6.6308 3.247613 32.098651 0.670986
2009-12-18 08:43:19 51°18.342 2°49.575 6.6326 3.247613 32.098651 0.670986
2009-12-18 08:43:25 51°18.341 2°49.544 6.6379 3.248856 32.108742 0.670986
2009-12-18 08:43:30 51°18.342 2°49.517 6.635 3.248545 32.102704 0.670986
2009-12-18 08:43:35 51°18.341 2°49.491 6.6364 3.249374 32.110017 0.670986
2009-12-18 08:43:39 51°18.341 2°49.47 6.6446 3.249063 32.103101 0.670986
2009-12-18 08:43:45 51°18.342 2°49.438 6.6512 3.249167 32.101599 0.670986
2009-12-18 08:43:50 51°18.344 2°49.412 6.649 3.249167 32.101599 0.670986
2009-12-18 08:43:55 51°18.344 2°49.386 6.6585 3.25103 32.117609 0.670986
2009-12-18 08:43:59 51°18.344 2°49.365 6.6576 3.250409 32.107294 0.670986
2009-12-18 08:44:05 51°18.346 2°49.334 6.6532 3.253412 32.137525 0.670986
2009-12-18 08:44:10 51°18.345 2°49.308 6.6667 3.253308 32.133755 0.670986
2009-12-18 08:44:15 51°18.348 2°49.283 6.671 3.252066 32.116642 0.670986
2009-12-18 08:44:19 51°18.345 2°49.261 6.6786 3.252066 32.116642 0.670986
2009-12-18 08:44:25 51°18.347 2°49.231 6.6718 3.251341 32.105198 0.670986
2009-12-18 08:44:30 51°18.347 2°49.205 6.6727 3.255586 32.147258 0.670986
2009-12-18 08:44:35 51°18.347 2°49.178 6.6733 3.254137 32.128761 0.670986
2009-12-18 08:44:39 51°18.349 2°49.158 6.6734 3.256104 32.147649 0.670986
2009-12-18 08:44:45 51°18.348 2°49.126 6.6761 3.255793 32.138979 0.670986
2009-12-18 08:44:50 51°18.35 2°49.1 6.6774 3.255793 32.138979 0.670986
2009-12-18 08:44:55 51°18.35 2°49.074 6.678 3.257968 32.157492 0.670986
2009-12-18 08:44:59 51°18.35 2°49.054 6.6865 3.257761 32.151712 0.670986
2009-12-18 08:45:05 51°18.351 2°49.023 6.692 3.258589 32.159015 0.670986
2009-12-18 08:45:10 51°18.352 2°48.997 6.7 3.257657 32.147945 0.670986
2009-12-18 08:45:15 51°18.35 2°48.971 6.7006 3.258071 32.151596 0.670986
2009-12-18 08:45:19 51°18.352 2°48.95 6.6958 3.258071 32.151596 0.670986
2009-12-18 08:45:25 51°18.353 2°48.919 6.6969 3.260764 32.17928 0.670986
2009-12-18 08:45:30 51°18.352 2°48.892 6.7044 3.260039 32.169595 0.670986
2009-12-18 08:45:35 51°18.354 2°48.867 6.7033 3.261799 32.185328 0.670986
2009-12-18 08:45:40 51°18.354 2°48.841 6.7035 3.262213 32.186341 0.636162
2009-12-18 08:45:45 51°18.355 2°48.814 6.7105 3.261799 32.17654 0.670986
2009-12-18 08:45:50 51°18.357 2°48.789 6.7159 3.261799 32.17654 0.670986
2009-12-18 08:45:55 51°18.358 2°48.763 6.7151 3.264595 32.204467 0.670986
2009-12-18 08:45:59 51°18.359 2°48.742 6.7164 3.264388 32.200444 0.670986
2009-12-18 08:46:05 51°18.362 2°48.712 6.721 3.264698 32.201203 0.670986
2009-12-18 08:46:05 51°18.362 2°48.712 6.721 3.264698 32.201203 0.670986
2009-12-18 08:46:21 51°18.368 2°48.63 6.7151 3.263559 32.180846 0.670986
2009-12-18 08:46:21 51°18.368 2°48.63 6.7151 3.263559 32.180846 0.670986
2009-12-18 08:46:36 51°18.374 2°48.553 6.7312 3.265941 32.200721 0.670986
2009-12-18 08:46:36 51°18.374 2°48.553 6.7312 3.265941 32.200721 0.670986
2009-12-18 08:46:47 51°18.38 2°48.499 6.7305 3.266562 32.203116 0.670986
2009-12-18 08:46:53 51°18.384 2°48.47 6.7307 3.268115 32.219207 0.670986
2009-12-18 08:46:58 51°18.386 2°48.445 6.7504 3.269151 32.227884 0.670986
2009-12-18 08:47:03 51°18.388 2°48.42 6.7399 3.269461 32.226882 0.670986
2009-12-18 08:47:07 51°18.39 2°48.4 6.738 3.269461 32.226882 0.670986
2009-12-18 08:47:13 51°18.394 2°48.371 6.7288 3.270601 32.237567 0.670986
2009-12-18 08:47:18 51°18.397 2°48.345 6.7362 3.270601 32.236688 0.670986
2009-12-18 08:47:23 51°18.399 2°48.32 6.7343 3.270704 32.23694 0.670986
2009-12-18 08:47:27 51°18.402 2°48.3 6.7334 3.270497 32.233798 0.670986
2009-12-18 08:47:33 51°18.405 2°48.27 6.7372 3.269047 32.215328 0.670986
2009-12-18 08:47:38 51°18.407 2°48.245 6.7401 3.271118 32.236189 0.670986
2009-12-18 08:47:43 51°18.41 2°48.219 6.7508 3.271118 32.236189 0.670986
2009-12-18 08:47:47 51°18.412 2°48.199 6.7432 3.271325 32.240209 0.70581
2009-12-18 08:47:53 51°18.414 2°48.169 6.745 3.271222 32.239958 0.70581
2009-12-18 08:47:58 51°18.418 2°48.144 6.7397 3.271636 32.244482 0.70581
2009-12-18 08:48:03 51°18.42 2°48.118 6.7484 3.270497 32.231161 0.70581
2009-12-18 08:48:07 51°18.422 2°48.097 6.7418 3.270497 32.231161 0.70581
2009-12-18 08:48:13 51°18.425 2°48.067 6.748 3.272361 32.249761 0.670986
2009-12-18 08:48:18 51°18.428 2°48.042 6.7544 3.271532 32.236318 0.70581
2009-12-18 08:48:23 51°18.431 2°48.016 6.7448 3.272464 32.244738 0.70581
2009-12-18 08:48:27 51°18.433 2°47.995 6.7447 3.271118 32.229159 0.70581
2009-12-18 08:48:33 51°18.437 2°47.965 6.746 3.272775 32.247251 0.670986
2009-12-18 08:48:38 51°18.439 2°47.939 6.7467 3.272775 32.247251 0.670986
2009-12-18 08:48:43 51°18.442 2°47.914 6.7505 3.273914 32.259691 0.70581
2009-12-18 08:48:47 51°18.444 2°47.894 6.7583 3.272257 32.240718 0.70581
2009-12-18 08:48:53 51°18.447 2°47.863 6.756 3.272982 32.247755 0.70581
2009-12-18 08:48:58 51°18.449 2°47.838 6.7522 3.271015 32.226271 0.70581
2009-12-18 08:49:03 51°18.452 2°47.812 6.7567 3.273396 32.251399 0.70581
2009-12-18 08:49:07 51°18.455 2°47.792 6.7562 3.273396 32.251399 0.70581
2009-12-18 08:49:13 51°18.457 2°47.761 6.754 3.2706 32.219113 0.70581
2009-12-18 08:49:18 51°18.46 2°47.736 6.7569 3.271532 32.226653 0.70581
2009-12-18 08:49:23 51°18.462 2°47.71 6.7588 3.2735 32.245498 0.70581
2009-12-18 08:49:27 51°18.464 2°47.69 6.749 3.2706 32.212089 0.70581
2009-12-18 08:49:33 51°18.463 2°47.657 6.7555 3.274018 32.249393 0.70581
2009-12-18 08:49:38 51°18.466 2°47.632 6.757 3.274018 32.249393 0.70581
2009-12-18 08:49:43 51°18.465 2°47.606 6.7566 3.274949 32.259567 0.70581
2009-12-18 08:49:47 51°18.465 2°47.585 6.7616 3.274846 32.257558 0.70581
2009-12-18 08:49:53 51°18.463 2°47.553 6.7634 3.274846 32.2558 0.70581
2009-12-18 08:49:58 51°18.464 2°47.526 6.7607 3.274846 32.257558 0.70581
2009-12-18 08:50:03 51°18.463 2°47.499 6.7607 3.274949 32.259567 0.70581
2009-12-18 08:50:07 51°18.461 2°47.478 6.7642 3.274949 32.259567 0.70581
2009-12-18 08:50:13 51°18.462 2°47.446 6.766 3.275053 32.260698 0.70581
2009-12-18 08:50:18 51°18.459 2°47.419 6.769 3.275053 32.259819 0.70581
2009-12-18 08:50:23 51°18.458 2°47.392 6.7697 3.275157 32.259191 0.70581
2009-12-18 08:50:28 51°18.456 2°47.366 6.7725 3.275157 32.257433 0.70581
2009-12-18 08:50:33 51°18.455 2°47.338 6.7719 3.275364 32.258815 0.70581
2009-12-18 08:50:38 51°18.453 2°47.312 6.7769 3.275364 32.258815 0.70581
2009-12-18 08:50:43 51°18.451 2°47.285 6.7749 3.275467 32.259945 0.70581
2009-12-18 08:50:48 51°18.45 2°47.258 6.7838 3.275571 32.259318 0.70581
2009-12-18 08:50:53 51°18.448 2°47.231 6.7833 3.275778 32.259821 0.70581
2009-12-18 08:50:58 51°18.446 2°47.204 6.7874 3.275881 32.259193 0.70581
2009-12-18 08:51:03 51°18.445 2°47.177 6.7875 3.276088 32.258817 0.70581
2009-12-18 08:51:07 51°18.444 2°47.156 6.7989 3.276296 32.25932 0.70581
2009-12-18 08:51:13 51°18.443 2°47.124 6.7998 3.276296 32.25932 0.70581
2009-12-18 08:51:18 51°18.441 2°47.097 6.8006 3.276503 32.259823 0.70581
2009-12-18 08:51:23 51°18.44 2°47.07 6.8091 3.276813 32.259699 0.70581
2009-12-18 08:51:27 51°18.44 2°47.049 6.8054 3.27702 32.259323 0.70581
2009-12-18 08:51:33 51°18.438 2°47.017 6.8107 3.277331 32.258321 0.70581
2009-12-18 08:51:38 51°18.437 2°46.99 6.813 3.277331 32.258321 0.70581
2009-12-18 08:51:43 51°18.437 2°46.963 6.8126 3.277642 32.259075 0.670986
2009-12-18 08:51:47 51°18.436 2°46.941 6.8193 3.278056 32.259203 0.670986
2009-12-18 08:51:52 51°18.435 2°46.914 6.827 3.278366 32.259079 0.670986
2009-12-18 08:51:58 51°18.435 2°46.881 6.828 3.27847 32.256697 0.670986
2009-12-18 08:52:03 51°18.434 2°46.855 6.8292 3.278884 32.257702 0.670986
2009-12-18 08:52:07 51°18.433 2°46.833 6.8302 3.278884 32.257702 0.670986
2009-12-18 08:52:13 51°18.434 2°46.801 6.8364 3.279195 32.258457 0.670986
2009-12-18 08:52:18 51°18.433 2°46.774 6.8421 3.279609 32.261218 0.670986
2009-12-18 08:52:23 51°18.434 2°46.747 6.8434 3.280023 32.262223 0.636162
2009-12-18 08:52:27 51°18.435 2°46.726 6.8432 3.280334 32.261222 0.636162
2009-12-18 08:52:33 51°18.435 2°46.694 6.8582 3.281059 32.263859 0.636162
2009-12-18 08:52:38 51°18.437 2°46.668 6.8519 3.281059 32.263859 0.636162
2009-12-18 08:52:43 51°18.436 2°46.641 6.8539 3.281576 32.26687 0.636162
2009-12-18 08:52:47 51°18.438 2°46.62 6.8568 3.28199 32.266997 0.636162
2009-12-18 08:52:53 51°18.439 2°46.587 6.8617 3.282405 32.268002 0.636162
2009-12-18 08:52:58 51°18.439 2°46.56 6.8613 3.282922 32.270135 0.601338
2009-12-18 08:53:03 51°18.44 2°46.534 6.8647 3.283337 32.27114 0.601338
2009-12-18 08:53:07 51°18.441 2°46.512 6.8704 3.284061 32.275528 0.601338
2009-12-18 08:53:13 51°18.442 2°46.48 6.873 3.284061 32.275528 0.601338
2009-12-18 08:53:18 51°18.443 2°46.453 6.8762 3.284993 32.282172 0.601338
2009-12-18 08:53:23 51°18.443 2°46.426 6.8791 3.285615 32.285432 0.601338
2009-12-18 08:53:27 51°18.444 2°46.405 6.8835 3.28634 32.291573 0.566514
2009-12-18 08:53:33 51°18.445 2°46.373 6.8881 3.287168 32.297964 0.566514
2009-12-18 08:53:38 51°18.447 2°46.346 6.8931 3.287168 32.297964 0.566514
2009-12-18 08:53:43 51°18.447 2°46.319 6.8948 3.287789 32.300344 0.566514
2009-12-18 08:53:47 51°18.447 2°46.298 6.9021 3.288514 32.305606 0.566514
2009-12-18 08:53:53 51°18.449 2°46.265 6.9021 3.289239 32.30999 0.566514
2009-12-18 08:53:58 51°18.45 2°46.238 6.9064 3.289964 32.314374 0.53169
2009-12-18 08:54:03 51°18.45 2°46.211 6.9098 3.290689 32.318756 0.566514
2009-12-18 08:54:07 51°18.451 2°46.19 6.9131 3.290689 32.318756 0.566514
2009-12-18 08:54:13 51°18.453 2°46.157 6.9158 3.291414 32.322261 0.566514
2009-12-18 08:54:18 51°18.453 2°46.13 6.9199 3.292346 32.32802 0.53169
2009-12-18 08:54:23 51°18.453 2°46.103 6.9255 3.293174 32.33265 0.566514
2009-12-18 08:54:27 51°18.455 2°46.081 6.9279 3.293899 32.33703 0.53169
2009-12-18 08:54:33 51°18.455 2°46.049 6.9356 3.294934 32.343035 0.53169
2009-12-18 08:54:38 51°18.456 2°46.022 6.9372 3.295763 32.34854 0.53169
2009-12-18 08:54:43 51°18.457 2°45.995 6.94 3.295763 32.34854 0.53169
2009-12-18 08:54:47 51°18.457 2°45.973 6.9456 3.296695 32.354293 0.53169
2009-12-18 08:54:53 51°18.459 2°45.941 6.9494 3.29773 32.362927 0.53169
2009-12-18 08:54:57 51°18.459 2°45.919 6.9543 3.298455 32.364671 0.53169
2009-12-18 08:55:03 51°18.46 2°45.887 6.9573 3.299284 32.369294 0.53169
2009-12-18 08:55:07 51°18.461 2°45.865 6.9644 3.299284 32.369294 0.53169
2009-12-18 08:55:13 51°18.463 2°45.833 6.9658 3.299905 32.371665 0.496866
2009-12-18 08:55:18 51°18.464 2°45.806 6.9694 3.301148 32.380792 0.53169
2009-12-18 08:55:23 51°18.465 2°45.779 6.9692 3.301976 32.385413 0.53169
2009-12-18 08:55:28 51°18.466 2°45.752 6.9702 3.302805 32.390911 0.53169
2009-12-18 08:55:33 51°18.467 2°45.725 6.9739 3.30384 32.396905 0.53169
2009-12-18 08:55:38 51°18.468 2°45.697 6.9789 3.30384 32.396905 0.53169
2009-12-18 08:55:43 51°18.47 2°45.671 6.9804 3.304772 32.401771 0.53169
2009-12-18 08:55:47 51°18.469 2°45.648 6.9846 3.3056 32.405511 0.53169
2009-12-18 08:55:53 51°18.471 2°45.616 6.9875 3.306222 32.408754 0.53169
2009-12-18 08:55:58 51°18.472 2°45.589 6.9898 3.306947 32.414878 0.53169
2009-12-18 08:56:03 51°18.473 2°45.562 6.9924 3.307775 32.421248 0.53169
2009-12-18 08:56:07 51°18.474 2°45.54 6.9957 3.307775 32.421248 0.53169
2009-12-18 08:56:13 51°18.475 2°45.507 6.9965 3.308293 32.423364 0.53169
2009-12-18 08:56:18 51°18.475 2°45.48 6.999 3.309121 32.428856 0.53169
2009-12-18 08:56:23 51°18.476 2°45.453 7.0041 3.309846 32.433221 0.53169
2009-12-18 08:56:27 51°18.477 2°45.432 7.0061 3.310468 32.435583 0.53169
2009-12-18 08:56:33 51°18.478 2°45.398 7.0086 3.311089 32.4397 0.53169
2009-12-18 08:56:38 51°18.48 2°45.372 7.0158 3.311607 32.442692 0.53169
2009-12-18 08:56:43 51°18.479 2°45.344 7.0153 3.311607 32.442692 0.53169
2009-12-18 08:56:47 51°18.48 2°45.322 7.0197 3.312021 32.443681 0.53169
2009-12-18 08:56:53 51°18.481 2°45.29 7.0216 3.312642 32.447797 0.53169
2009-12-18 08:56:58 51°18.482 2°45.263 7.028 3.31316 32.450787 0.53169
2009-12-18 08:57:03 51°18.483 2°45.235 7.0277 3.313781 32.454025 0.53169
2009-12-18 08:57:07 51°18.483 2°45.214 7.0306 3.313781 32.454025 0.53169
2009-12-18 08:57:13 51°18.485 2°45.181 7.034 3.314299 32.456137 0.53169
2009-12-18 08:57:18 51°18.486 2°45.154 7.0385 3.314817 32.457371 0.53169
2009-12-18 08:57:23 51°18.488 2°45.128 7.0446 3.315542 32.461732 0.53169
2009-12-18 08:57:27 51°18.487 2°45.106 7.0518 3.315853 32.462472 0.53169
2009-12-18 08:57:33 51°18.49 2°45.074 7.0637 3.316474 32.465707 0.53169
2009-12-18 08:57:38 51°18.49 2°45.048 7.0738 3.316474 32.465707 0.53169
2009-12-18 08:57:43 51°18.492 2°45.021 7.0829 3.316992 32.468695 0.53169
2009-12-18 08:57:48 51°18.493 2°44.995 7.0899 3.317509 32.470806 0.53169
2009-12-18 08:57:53 51°18.495 2°44.968 7.1017 3.318131 32.473162 0.566514
2009-12-18 08:57:58 51°18.496 2°44.941 7.1058 3.318649 32.473517 0.53169
2009-12-18 08:58:03 51°18.497 2°44.914 7.1183 3.31927 32.474119 0.53169
2009-12-18 08:58:07 51°18.499 2°44.894 7.1257 3.31927 32.474119 0.53169
2009-12-18 08:58:13 51°18.499 2°44.861 7.1347 3.319995 32.473214 0.53169
2009-12-18 08:58:18 51°18.501 2°44.834 7.1473 3.320927 32.471926 0.566514
2009-12-18 08:58:23 51°18.501 2°44.807 7.1533 3.322066 32.475514 0.566514
2009-12-18 08:58:27 51°18.504 2°44.787 7.1614 3.323101 32.477978 0.566514
2009-12-18 08:58:33 51°18.502 2°44.754 7.1672 3.324033 32.478443 0.566514
2009-12-18 08:58:38 51°18.506 2°44.729 7.1783 3.324033 32.478443 0.566514
2009-12-18 08:58:43 51°18.505 2°44.702 7.1809 3.325172 32.482028 0.566514
2009-12-18 08:58:47 51°18.506 2°44.681 7.194 3.326001 32.480497 0.53169
2009-12-18 08:58:53 51°18.508 2°44.649 7.1994 3.327243 32.483452 0.566514
2009-12-18 08:58:58 51°18.508 2°44.623 7.2064 3.328383 32.485286 0.566514
2009-12-18 08:59:03 51°18.511 2°44.597 7.2107 3.329315 32.485752 0.566514
2009-12-18 08:59:07 51°18.51 2°44.575 7.217 3.329315 32.485752 0.566514
2009-12-18 08:59:13 51°18.512 2°44.544 7.2222 3.330143 32.485973 0.53169
2009-12-18 08:59:18 51°18.512 2°44.517 7.2295 3.331179 32.488434 0.566514
2009-12-18 08:59:23 51°18.513 2°44.491 7.2347 3.332111 32.489775 0.566514
2009-12-18 08:59:27 51°18.515 2°44.47 7.2455 3.332835 32.490624 0.53169
2009-12-18 08:59:33 51°18.517 2°44.439 7.244 3.333871 32.493958 0.53169
2009-12-18 08:59:38 51°18.518 2°44.413 7.2501 3.333871 32.493958 0.53169
2009-12-18 08:59:43 51°18.52 2°44.387 7.254 3.334907 32.49729 0.53169
2009-12-18 08:59:47 51°18.523 2°44.367 7.2593 3.335631 32.499012 0.53169
2009-12-18 08:59:53 51°18.522 2°44.334 7.2656 3.33646 32.499232 0.53169
2009-12-18 08:59:58 51°18.526 2°44.31 7.2677 3.337185 32.50008 0.53169
2009-12-18 09:00:03 51°18.526 2°44.283 7.27 3.337806 32.501555 0.53169
2009-12-18 09:00:08 51°18.528 2°44.257 7.2787 3.338531 32.502403 0.53169
2009-12-18 09:00:13 51°18.529 2°44.231 7.277 3.338531 32.502403 0.53169
2009-12-18 09:00:18 51°18.53 2°44.205 7.2809 3.338945 32.501641 0.53169
2009-12-18 09:00:23 51°18.533 2°44.18 7.2841 3.339877 32.505598 0.53169
2009-12-18 09:00:27 51°18.534 2°44.159 7.2886 3.340395 32.507698 0.53169
2009-12-18 09:00:33 51°18.536 2°44.126 7.2899 3.340913 32.508054 0.53169
2009-12-18 09:00:38 51°18.538 2°44.101 7.2937 3.340913 32.508054 0.53169
2009-12-18 09:00:43 51°18.539 2°44.075 7.295 3.341327 32.508165 0.496866
2009-12-18 09:00:47 51°18.54 2°44.053 7.301 3.341948 32.51051 0.496866
2009-12-18 09:00:53 51°18.544 2°44.022 7.2989 3.342466 32.511738 0.496866
2009-12-18 09:00:58 51°18.543 2°43.995 7.3082 3.342777 32.511603 0.496866
2009-12-18 09:01:03 51°18.547 2°43.97 7.3194 3.34288 32.509234 0.496866
2009-12-18 09:01:07 51°18.549 2°43.95 7.3188 3.34288 32.509234 0.496866
2009-12-18 09:01:13 51°18.55 2°43.919 7.3137 3.343813 32.516673 0.496866
2009-12-18 09:01:18 51°18.552 2°43.893 7.3136 3.34433 32.517029 0.496866
2009-12-18 09:01:23 51°18.552 2°43.867 7.3214 3.344641 32.516894 0.496866
2009-12-18 09:01:27 51°18.555 2°43.847 7.3147 3.34547 32.521471 0.496866
2009-12-18 09:01:33 51°18.555 2°43.815 7.318 3.345677 32.519348 0.496866
2009-12-18 09:01:38 51°18.557 2°43.789 7.3216 3.345677 32.519348 0.496866
2009-12-18 09:01:43 51°18.558 2°43.763 7.3227 3.345987 32.516599 0.496866
2009-12-18 09:01:47 51°18.559 2°43.741 7.3283 3.346402 32.519323 0.496866
2009-12-18 09:01:53 51°18.56 2°43.71 7.3323 3.347023 32.52515 0.496866
2009-12-18 09:01:58 51°18.561 2°43.683 7.3379 3.347437 32.528744 0.496866
2009-12-18 09:02:03 51°18.563 2°43.658 7.3407 3.348059 32.534571 0.496866
2009-12-18 09:02:07 51°18.562 2°43.636 7.3401 3.348059 32.534571 0.496866
2009-12-18 09:02:13 51°18.565 2°43.606 7.3442 3.348369 32.535306 0.496866
2009-12-18 09:02:18 51°18.564 2°43.579 7.3452 3.348784 32.538029 0.496866
2009-12-18 09:02:23 51°18.567 2°43.553 7.3503 3.349094 32.537021 0.462042
2009-12-18 09:02:27 51°18.567 2°43.532 7.3621 3.349405 32.537756 0.462042
2009-12-18 09:02:33 51°18.568 2°43.5 7.3632 3.349923 32.538981 0.496866
2009-12-18 09:02:38 51°18.567 2°43.473 7.3662 3.349923 32.538981 0.496866
2009-12-18 09:02:43 51°18.571 2°43.448 7.3674 3.350337 32.53996 0.462042
2009-12-18 09:02:47 51°18.57 2°43.426 7.3728 3.351062 32.545158 0.496866
2009-12-18 09:02:53 51°18.571 2°43.394 7.3813 3.351683 32.547498 0.462042
2009-12-18 09:02:58 51°18.573 2°43.367 7.3852 3.352408 32.550952 0.462042
2009-12-18 09:03:03 51°18.573 2°43.341 7.3935 3.35303 32.553291 0.462042
2009-12-18 09:03:07 51°18.575 2°43.32 7.3965 3.35303 32.553291 0.462042
2009-12-18 09:03:13 51°18.576 2°43.288 7.3987 3.354065 32.559219 0.462042
2009-12-18 09:03:18 51°18.577 2°43.262 7.4025 3.354687 32.562428 0.462042
2009-12-18 09:03:23 51°18.579 2°43.236 7.4058 3.355515 32.566995 0.462042
2009-12-18 09:03:27 51°18.579 2°43.215 7.412 3.356551 32.57292 0.462042
2009-12-18 09:03:33 51°18.58 2°43.184 7.4173 3.357172 32.572644 0.462042
2009-12-18 09:03:38 51°18.582 2°43.157 7.4171 3.357897 32.575224 0.462042
2009-12-18 09:03:43 51°18.582 2°43.131 7.4269 3.357897 32.575224 0.462042
2009-12-18 09:03:47 51°18.584 2°43.11 7.427 3.358726 32.578047 0.462042
2009-12-18 09:03:53 51°18.584 2°43.078 7.4279 3.359451 32.582366 0.462042